Observation data for Amarillo 9 North Northeast on 12/08/2018      Previous  Date       Current Mesonet Observations  Soil Data  Daily Summary Page  Observations in Plain Language
KAM2 080600Z 04007KT M00/M04 A3032 RMK A01 T10011041  RH  075%=      5-min Rain = 0
KAM2 080601Z 04006KT M00/M04 A3032 RMK A01 T10021041  RH  075%=      5-min Rain = 0
KAM2 080602Z 03006KT M00/M04 A3032 RMK A01 T10021041  RH  075%=      5-min Rain = 0
KAM2 080603Z 03006KT M00/M04 A3032 RMK A01 T10021041  RH  075%=      5-min Rain = 0
KAM2 080604Z 04005KT M00/M04 A3032 RMK A01 T10021040  RH  075%=      5-min Rain = 0
KAM2 080605Z 05004KT M00/M04 A3032 RMK A01 T10021040  RH  076%=      5-min Rain = 0
KAM2 080606Z 05006KT M00/M04 A3032 RMK A01 T10021040  RH  076%=      5-min Rain = 0
KAM2 080607Z 05005KT M00/M04 A3032 RMK A01 T10021040  RH  075%=      5-min Rain = 0
KAM2 080608Z 04005KT M00/M04 A3032 RMK A01 T10021040  RH  075%=      5-min Rain = 0
KAM2 080609Z 04005KT M00/M04 A3032 RMK A01 T10021040  RH  075%=      5-min Rain = 0
KAM2 080610Z 05005KT M00/M04 A3032 RMK A01 T10021040  RH  075%=      5-min Rain = 0
KAM2 080611Z 04004KT M00/M04 A3032 RMK A01 T10021040  RH  076%=      5-min Rain = 0
KAM2 080612Z 04004KT M00/M04 A3032 RMK A01 T10021040  RH  076%=      5-min Rain = 0
KAM2 080613Z 04005KT M00/M04 A3032 RMK A01 T10021039  RH  076%=      5-min Rain = 0
KAM2 080614Z 04005KT M00/M04 A3032 RMK A01 T10021040  RH  076%=      5-min Rain = 0
KAM2 080615Z 04006KT M00/M04 A3032 RMK A01 T10021040  RH  076%=      5-min Rain = 0
KAM2 080616Z 04006KT M00/M04 A3032 RMK A01 T10021040  RH  076%=      5-min Rain = 0
KAM2 080617Z 04006KT M00/M04 A3032 RMK A01 T10021040  RH  076%=      5-min Rain = 0
KAM2 080618Z 04006KT M00/M04 A3032 RMK A01 T10021040  RH  076%=      5-min Rain = 0
KAM2 080619Z 04005KT M00/M04 A3032 RMK A01 T10021040  RH  076%=      5-min Rain = 0
KAM2 080620Z 04004KT M00/M04 A3032 RMK A01 T10031040  RH  076%=      5-min Rain = 0
KAM2 080621Z 04004KT M00/M04 A3032 RMK A01 T10021039  RH  076%=      5-min Rain = 0
KAM2 080622Z 05005KT M00/M04 A3032 RMK A01 T10021040  RH  076%=      5-min Rain = 0
KAM2 080623Z 05006KT M00/M04 A3032 RMK A01 T10031040  RH  076%=      5-min Rain = 0
KAM2 080624Z 04007KT M00/M04 A3032 RMK A01 T10031041  RH  076%=      5-min Rain = 0
KAM2 080625Z 04006KT M00/M04 A3032 RMK A01 T10031041  RH  076%=      5-min Rain = 0
KAM2 080626Z 04006KT M00/M04 A3032 RMK A01 T10031041  RH  076%=      5-min Rain = 0
KAM2 080627Z 04006KT M00/M04 A3032 RMK A01 T10041042  RH  076%=      5-min Rain = 0
KAM2 080628Z 05006KT M00/M04 A3032 RMK A01 T10041041  RH  076%=      5-min Rain = 0
KAM2 080629Z 04005KT M00/M04 A3032 RMK A01 T10041041  RH  076%=      5-min Rain = 0
KAM2 080630Z 03003KT M00/M04 A3032 RMK A01 T10041041  RH  076%=      5-min Rain = 0
KAM2 080631Z 03006KT M00/M04 A3032 RMK A01 T10041041  RH  076%=      5-min Rain = 0
KAM2 080632Z 03006KT M00/M04 A3032 RMK A01 T10041041  RH  076%=      5-min Rain = 0
KAM2 080633Z 03006KT M00/M04 A3032 RMK A01 T10041042  RH  076%=      5-min Rain = 0
KAM2 080634Z 03005KT M01/M04 A3032 RMK A01 T10051042  RH  076%=      5-min Rain = 0
KAM2 080635Z 04006KT M01/M04 A3032 RMK A01 T10051042  RH  076%=      5-min Rain = 0
KAM2 080636Z 03007KT M01/M04 A3032 RMK A01 T10051042  RH  076%=      5-min Rain = 0
KAM2 080637Z 03006KT M01/M04 A3032 RMK A01 T10051042  RH  076%=      5-min Rain = 0
KAM2 080638Z 03007KT M01/M04 A3032 RMK A01 T10051042  RH  076%=      5-min Rain = 0
KAM2 080639Z 04006KT M01/M04 A3032 RMK A01 T10061043  RH  076%=      5-min Rain = 0
KAM2 080640Z 04006KT M01/M04 A3032 RMK A01 T10061042  RH  076%=      5-min Rain = 0
KAM2 080641Z 04006KT M01/M04 A3032 RMK A01 T10051042  RH  076%=      5-min Rain = 0
KAM2 080642Z 04005KT M01/M04 A3032 RMK A01 T10061042  RH  076%=      5-min Rain = 0
KAM2 080643Z 04006KT M01/M04 A3032 RMK A01 T10061042  RH  076%=      5-min Rain = 0
KAM2 080644Z 04005KT M01/M04 A3032 RMK A01 T10061042  RH  076%=      5-min Rain = 0
KAM2 080645Z 04005KT M01/M04 A3032 RMK A01 T10061042  RH  076%=      5-min Rain = 0
KAM2 080646Z 03004KT M01/M04 A3032 RMK A01 T10061042  RH  077%=      5-min Rain = 0
KAM2 080647Z 03005KT M01/M04 A3032 RMK A01 T10061042  RH  077%=      5-min Rain = 0
KAM2 080648Z 03005KT M01/M04 A3032 RMK A01 T10061042  RH  077%=      5-min Rain = 0
KAM2 080649Z 03005KT M01/M04 A3032 RMK A01 T10061042  RH  077%=      5-min Rain = 0
KAM2 080650Z 03005KT M01/M04 A3032 RMK A01 T10061042  RH  077%=      5-min Rain = 0
KAM2 080651Z 03006KT M01/M04 A3032 RMK A01 T10061042  RH  077%=      5-min Rain = 0
KAM2 080652Z 02006KT M01/M04 A3032 RMK A01 T10061042  RH  077%=      5-min Rain = 0
KAM2 080653Z 02005KT M01/M04 A3032 RMK A01 T10071042  RH  077%=      5-min Rain = 0
KAM2 080654Z 02006KT M01/M04 A3032 RMK A01 T10071042  RH  077%=      5-min Rain = 0
KAM2 080655Z 03005KT M01/M04 A3032 RMK A01 T10071042  RH  077%=      5-min Rain = 0
KAM2 080656Z 04005KT M01/M04 A3031 RMK A01 T10071042  RH  077%=      5-min Rain = 0
KAM2 080657Z 03005KT M01/M04 A3031 RMK A01 T10071042  RH  077%=      5-min Rain = 0
KAM2 080658Z 03006KT M01/M04 A3031 RMK A01 T10071041  RH  077%=      5-min Rain = 0
KAM2 080659Z 03007KT M01/M04 A3031 RMK A01 T10071042  RH  077%=      5-min Rain = 0
KAM2 080700Z 03007KT M01/M04 A3031 RMK A01 T10071042  RH  077%=      5-min Rain = 0
KAM2 080701Z 03007KT M01/M04 A3031 RMK A01 T10071042  RH  077%=      5-min Rain = 0
KAM2 080702Z 03006KT M01/M04 A3031 RMK A01 T10071043  RH  077%=      5-min Rain = 0
KAM2 080703Z 03006KT M01/M04 A3031 RMK A01 T10081043  RH  077%=      5-min Rain = 0
KAM2 080704Z 03007KT M01/M04 A3031 RMK A01 T10071042  RH  077%=      5-min Rain = 0
KAM2 080705Z 03007KT M01/M04 A3031 RMK A01 T10071043  RH  077%=      5-min Rain = 0
KAM2 080706Z 03006KT M01/M04 A3031 RMK A01 T10081043  RH  077%=      5-min Rain = 0
KAM2 080707Z 03005KT M01/M04 A3031 RMK A01 T10081043  RH  077%=      5-min Rain = 0
KAM2 080708Z 02006KT M01/M04 A3031 RMK A01 T10081043  RH  077%=      5-min Rain = 0
KAM2 080709Z 03005KT M01/M04 A3031 RMK A01 T10081043  RH  077%=      5-min Rain = 0
KAM2 080710Z 02006KT M01/M04 A3031 RMK A01 T10081042  RH  077%=      5-min Rain = 0
KAM2 080711Z 02006KT M01/M04 A3031 RMK A01 T10081042  RH  077%=      5-min Rain = 0
KAM2 080712Z 03006KT M01/M04 A3031 RMK A01 T10081042  RH  078%=      5-min Rain = 0
KAM2 080713Z 02006KT M01/M04 A3031 RMK A01 T10081042  RH  078%=      5-min Rain = 0
KAM2 080714Z 03006KT M01/M04 A3031 RMK A01 T10081043  RH  077%=      5-min Rain = 0
KAM2 080715Z 03006KT M01/M04 A3031 RMK A01 T10081043  RH  077%=      5-min Rain = 0
KAM2 080716Z 03006KT M01/M04 A3031 RMK A01 T10081043  RH  077%=      5-min Rain = 0
KAM2 080717Z 03006KT M01/M04 A3031 RMK A01 T10081043  RH  077%=      5-min Rain = 0
KAM2 080718Z 02006KT M01/M04 A3031 RMK A01 T10081042  RH  077%=      5-min Rain = 0
KAM2 080719Z 02007KT M01/M04 A3031 RMK A01 T10081042  RH  078%=      5-min Rain = 0
KAM2 080720Z 02007KT M01/M04 A3031 RMK A01 T10081042  RH  077%=      5-min Rain = 0
KAM2 080721Z 02006KT M01/M04 A3031 RMK A01 T10081042  RH  078%=      5-min Rain = 0
KAM2 080722Z 03006KT M01/M04 A3031 RMK A01 T10081042  RH  078%=      5-min Rain = 0
KAM2 080723Z 02005KT M01/M04 A3031 RMK A01 T10081043  RH  078%=      5-min Rain = 0
KAM2 080724Z 02006KT M01/M04 A3031 RMK A01 T10091042  RH  078%=      5-min Rain = 0
KAM2 080725Z 01007KT M01/M04 A3031 RMK A01 T10091043  RH  078%=      5-min Rain = 0
KAM2 080726Z 02006KT M01/M04 A3031 RMK A01 T10081043  RH  078%=      5-min Rain = 0
KAM2 080727Z 03006KT M01/M04 A3031 RMK A01 T10081042  RH  078%=      5-min Rain = 0
KAM2 080728Z 02006KT M01/M04 A3031 RMK A01 T10081042  RH  078%=      5-min Rain = 0
KAM2 080729Z 03006KT M01/M04 A3031 RMK A01 T10081042  RH  078%=      5-min Rain = 0
KAM2 080730Z 03007KT M01/M04 A3031 RMK A01 T10081042  RH  078%=      5-min Rain = 0
KAM2 080731Z 03006KT M01/M04 A3031 RMK A01 T10081042  RH  078%=      5-min Rain = 0
KAM2 080732Z 03006KT M01/M04 A3031 RMK A01 T10081042  RH  078%=      5-min Rain = 0
KAM2 080733Z 03007KT M01/M04 A3031 RMK A01 T10091042  RH  078%=      5-min Rain = 0
KAM2 080734Z 04006KT M01/M04 A3031 RMK A01 T10091043  RH  078%=      5-min Rain = 0
KAM2 080735Z 03005KT M01/M04 A3031 RMK A01 T10091042  RH  078%=      5-min Rain = 0
KAM2 080736Z 02006KT M01/M04 A3031 RMK A01 T10091042  RH  078%=      5-min Rain = 0
KAM2 080737Z 03006KT M01/M04 A3031 RMK A01 T10091042  RH  078%=      5-min Rain = 0
KAM2 080738Z 03006KT M01/M04 A3031 RMK A01 T10091042  RH  078%=      5-min Rain = 0
KAM2 080739Z 03006KT M01/M04 A3031 RMK A01 T10091042  RH  078%=      5-min Rain = 0
KAM2 080740Z 03006KT M01/M04 A3031 RMK A01 T10091042  RH  078%=      5-min Rain = 0
KAM2 080741Z 03006KT M01/M04 A3031 RMK A01 T10091042  RH  078%=      5-min Rain = 0
KAM2 080742Z 04006KT M01/M04 A3031 RMK A01 T10091043  RH  078%=      5-min Rain = 0
KAM2 080743Z 04006KT M01/M04 A3031 RMK A01 T10091043  RH  078%=      5-min Rain = 0
KAM2 080744Z 03005KT M01/M04 A3031 RMK A01 T10091042  RH  078%=      5-min Rain = 0
KAM2 080745Z 02005KT M01/M04 A3031 RMK A01 T10091042  RH  078%=      5-min Rain = 0
KAM2 080746Z 03005KT M01/M04 A3031 RMK A01 T10091042  RH  078%=      5-min Rain = 0
KAM2 080747Z 03005KT M01/M04 A3031 RMK A01 T10091041  RH  078%=      5-min Rain = 0
KAM2 080748Z 02005KT M01/M04 A3031 RMK A01 T10091042  RH  078%=      5-min Rain = 0
KAM2 080749Z 02005KT M01/M04 A3031 RMK A01 T10101042  RH  079%=      5-min Rain = 0
KAM2 080750Z 03004KT M01/M04 A3031 RMK A01 T10091042  RH  079%=      5-min Rain = 0
KAM2 080751Z 03005KT M01/M04 A3031 RMK A01 T10091042  RH  079%=      5-min Rain = 0
KAM2 080752Z 03006KT M01/M04 A3031 RMK A01 T10091041  RH  079%=      5-min Rain = 0
KAM2 080753Z 03006KT M01/M04 A3031 RMK A01 T10091042  RH  079%=      5-min Rain = 0
KAM2 080754Z 03006KT M01/M04 A3031 RMK A01 T10091042  RH  078%=      5-min Rain = 0
KAM2 080755Z 03006KT M01/M04 A3031 RMK A01 T10091042  RH  078%=      5-min Rain = 0
KAM2 080756Z 03005KT M01/M04 A3031 RMK A01 T10091042  RH  078%=      5-min Rain = 0
KAM2 080757Z 03005KT M01/M04 A3031 RMK A01 T10091042  RH  078%=      5-min Rain = 0
KAM2 080758Z 04006KT M01/M04 A3031 RMK A01 T10091042  RH  078%=      5-min Rain = 0
KAM2 080759Z 04006KT M01/M04 A3031 RMK A01 T10091042  RH  078%=      5-min Rain = 0
KAM2 080800Z 04005KT M01/M04 A3031 RMK A01 T10091042  RH  078%=      5-min Rain = 0
KAM2 080801Z 04005KT M01/M04 A3031 RMK A01 T10091042  RH  078%=      5-min Rain = 0
KAM2 080802Z 04005KT M01/M04 A3031 RMK A01 T10091042  RH  078%=      5-min Rain = 0
KAM2 080803Z 04004KT M01/M04 A3031 RMK A01 T10091042  RH  078%=      5-min Rain = 0
KAM2 080804Z 04004KT M01/M04 A3031 RMK A01 T10091042  RH  079%=      5-min Rain = 0
KAM2 080805Z 04003KT M01/M04 A3031 RMK A01 T10091042  RH  079%=      5-min Rain = 0
KAM2 080806Z 03004KT M01/M04 A3031 RMK A01 T10091041  RH  079%=      5-min Rain = 0
KAM2 080807Z 02004KT M01/M04 A3031 RMK A01 T10091041  RH  079%=      5-min Rain = 0
KAM2 080808Z 03005KT M01/M04 A3031 RMK A01 T10091041  RH  079%=      5-min Rain = 0
KAM2 080809Z 03005KT M01/M04 A3031 RMK A01 T10091042  RH  079%=      5-min Rain = 0
KAM2 080810Z 04004KT M01/M04 A3031 RMK A01 T10091042  RH  079%=      5-min Rain = 0
KAM2 080811Z 03004KT M01/M04 A3031 RMK A01 T10091041  RH  079%=      5-min Rain = 0
KAM2 080812Z 04004KT M01/M04 A3031 RMK A01 T10091041  RH  079%=      5-min Rain = 0
KAM2 080813Z 04005KT M01/M04 A3031 RMK A01 T10091041  RH  079%=      5-min Rain = 0
KAM2 080814Z 03005KT M01/M04 A3031 RMK A01 T10091041  RH  079%=      5-min Rain = 0
KAM2 080815Z 02004KT M01/M04 A3031 RMK A01 T10091041  RH  079%=      5-min Rain = 0
KAM2 080816Z 02005KT M01/M04 A3031 RMK A01 T10091041  RH  079%=      5-min Rain = 0
KAM2 080817Z 02005KT M01/M04 A3031 RMK A01 T10091040  RH  079%=      5-min Rain = 0
KAM2 080818Z 03006KT M01/M04 A303 RMK A01 T10091040  RH  079%=      5-min Rain = 0
KAM2 080819Z 02005KT M01/M04 A303 RMK A01 T10091040  RH  079%=      5-min Rain = 0
KAM2 080820Z 02005KT M01/M04 A303 RMK A01 T10091040  RH  079%=      5-min Rain = 0
KAM2 080821Z 02005KT M01/M04 A303 RMK A01 T10091040  RH  079%=      5-min Rain = 0
KAM2 080822Z 03005KT M01/M04 A303 RMK A01 T10091040  RH  079%=      5-min Rain = 0
KAM2 080823Z 03006KT M01/M04 A303 RMK A01 T10091040  RH  079%=      5-min Rain = 0
KAM2 080824Z 03005KT M01/M04 A303 RMK A01 T10091040  RH  079%=      5-min Rain = 0
KAM2 080825Z 04005KT M01/M04 A303 RMK A01 T10091040  RH  079%=      5-min Rain = 0
KAM2 080826Z 03005KT M01/M04 A303 RMK A01 T10091040  RH  079%=      5-min Rain = 0
KAM2 080827Z 03006KT M01/M04 A303 RMK A01 T10091041  RH  079%=      5-min Rain = 0
KAM2 080828Z 03006KT M01/M04 A303 RMK A01 T10091041  RH  079%=      5-min Rain = 0
KAM2 080829Z 03006KT M01/M04 A303 RMK A01 T10091041  RH  079%=      5-min Rain = 0
KAM2 080830Z 03005KT M01/M04 A303 RMK A01 T10091041  RH  079%=      5-min Rain = 0
KAM2 080831Z 03005KT M01/M04 A303 RMK A01 T10091041  RH  079%=      5-min Rain = 0
KAM2 080832Z 04005KT M01/M04 A303 RMK A01 T10091041  RH  079%=      5-min Rain = 0
KAM2 080833Z 03004KT M01/M04 A303 RMK A01 T10091041  RH  079%=      5-min Rain = 0
KAM2 080834Z 04004KT M01/M04 A303 RMK A01 T10091041  RH  079%=      5-min Rain = 0
KAM2 080835Z 03005KT M01/M04 A303 RMK A01 T10091041  RH  079%=      5-min Rain = 0
KAM2 080836Z 04005KT M01/M04 A303 RMK A01 T10091042  RH  079%=      5-min Rain = 0
KAM2 080837Z 03005KT M01/M04 A303 RMK A01 T10101042  RH  079%=      5-min Rain = 0
KAM2 080838Z 03005KT M01/M04 A303 RMK A01 T10101042  RH  079%=      5-min Rain = 0
KAM2 080839Z 03005KT M01/M04 A303 RMK A01 T10101042  RH  079%=      5-min Rain = 0
KAM2 080840Z 03005KT M01/M04 A303 RMK A01 T10091041  RH  079%=      5-min Rain = 0
KAM2 080841Z 03005KT M01/M04 A303 RMK A01 T10101042  RH  079%=      5-min Rain = 0
KAM2 080842Z 03005KT M01/M04 A303 RMK A01 T10101042  RH  079%=      5-min Rain = 0
KAM2 080843Z 02005KT M01/M04 A303 RMK A01 T10101041  RH  079%=      5-min Rain = 0
KAM2 080844Z 02005KT M01/M04 A303 RMK A01 T10101042  RH  079%=      5-min Rain = 0
KAM2 080845Z 02005KT M01/M04 A303 RMK A01 T10101042  RH  079%=      5-min Rain = 0
KAM2 080846Z 02004KT M01/M04 A303 RMK A01 T10101042  RH  079%=      5-min Rain = 0
KAM2 080847Z 02005KT M01/M04 A303 RMK A01 T10101042  RH  079%=      5-min Rain = 0
KAM2 080848Z 02005KT M01/M04 A303 RMK A01 T10101042  RH  079%=      5-min Rain = 0
KAM2 080849Z 02006KT M01/M04 A303 RMK A01 T10101042  RH  079%=      5-min Rain = 0
KAM2 080850Z 02005KT M01/M04 A303 RMK A01 T10101041  RH  079%=      5-min Rain = 0
KAM2 080851Z 03005KT M01/M04 A303 RMK A01 T10101041  RH  079%=      5-min Rain = 0
KAM2 080852Z 03005KT M01/M04 A303 RMK A01 T10101042  RH  079%=      5-min Rain = 0
KAM2 080853Z 01004KT M01/M04 A303 RMK A01 T10101041  RH  079%=      5-min Rain = 0
KAM2 080854Z 01005KT M01/M04 A3029 RMK A01 T10101041  RH  079%=      5-min Rain = 0
KAM2 080855Z 01005KT M01/M04 A3029 RMK A01 T10101042  RH  079%=      5-min Rain = 0
KAM2 080856Z 02006KT M01/M04 A3029 RMK A01 T10101042  RH  079%=      5-min Rain = 0
KAM2 080857Z 02005KT M01/M04 A3029 RMK A01 T10101041  RH  079%=      5-min Rain = 0
KAM2 080858Z 02007KT M01/M04 A3029 RMK A01 T10101042  RH  079%=      5-min Rain = 0
KAM2 080859Z 02006KT M01/M04 A3029 RMK A01 T10101042  RH  079%=      5-min Rain = 0
KAM2 080900Z 02006KT M01/M04 A3029 RMK A01 T10101042  RH  079%=      5-min Rain = 0
KAM2 080901Z 03006KT M01/M04 A3029 RMK A01 T10101041  RH  079%=      5-min Rain = 0
KAM2 080902Z 03006KT M01/M04 A3029 RMK A01 T10111043  RH  079%=      5-min Rain = 0
KAM2 080903Z 03006KT M01/M04 A3029 RMK A01 T10111043  RH  079%=      5-min Rain = 0
KAM2 080904Z 03005KT M01/M04 A303 RMK A01 T10101043  RH  079%=      5-min Rain = 0
KAM2 080905Z 03004KT M01/M04 A303 RMK A01 T10111043  RH  079%=      5-min Rain = 0
KAM2 080906Z 03005KT M01/M04 A303 RMK A01 T10111043  RH  079%=      5-min Rain = 0
KAM2 080907Z 02005KT M01/M04 A303 RMK A01 T10111043  RH  079%=      5-min Rain = 0
KAM2 080908Z 03004KT M01/M04 A303 RMK A01 T10111043  RH  078%=      5-min Rain = 0
KAM2 080909Z 03005KT M01/M04 A303 RMK A01 T10111043  RH  078%=      5-min Rain = 0
KAM2 080910Z 03004KT M01/M04 A303 RMK A01 T10111043  RH  078%=      5-min Rain = 0
KAM2 080911Z 04005KT M01/M04 A303 RMK A01 T10101043  RH  079%=      5-min Rain = 0
KAM2 080912Z 04004KT M01/M04 A303 RMK A01 T10111044  RH  078%=      5-min Rain = 0
KAM2 080913Z 04004KT M01/M04 A303 RMK A01 T10111043  RH  078%=      5-min Rain = 0
KAM2 080914Z 04003KT M01/M04 A303 RMK A01 T10111044  RH  078%=      5-min Rain = 0
KAM2 080915Z 03004KT M01/M04 A303 RMK A01 T10111043  RH  078%=      5-min Rain = 0
KAM2 080916Z 02004KT M01/M04 A303 RMK A01 T10111043  RH  079%=      5-min Rain = 0
KAM2 080917Z 02006KT M01/M04 A303 RMK A01 T10111043  RH  079%=      5-min Rain = 0
KAM2 080918Z 02006KT M01/M04 A303 RMK A01 T10111044  RH  078%=      5-min Rain = 0
KAM2 080919Z 01006KT M01/M04 A303 RMK A01 T10111044  RH  078%=      5-min Rain = 0
KAM2 080920Z 02006KT M01/M04 A303 RMK A01 T10111044  RH  078%=      5-min Rain = 0
KAM2 080921Z 01007KT M01/M04 A3029 RMK A01 T10111044  RH  078%=      5-min Rain = 0
KAM2 080922Z 02008KT M01/M05 A3029 RMK A01 T10111045  RH  078%=      5-min Rain = 0
KAM2 080923Z 01007KT M01/M05 A3029 RMK A01 T10111045  RH  077%=      5-min Rain = 0
KAM2 080924Z 01007KT M01/M05 A3029 RMK A01 T10111047  RH  077%=      5-min Rain = 0
KAM2 080925Z 01007KT M01/M05 A3029 RMK A01 T10111046  RH  077%=      5-min Rain = 0
KAM2 080926Z 01007KT M01/M05 A3029 RMK A01 T10111046  RH  077%=      5-min Rain = 0
KAM2 080927Z 01006KT M01/M05 A3029 RMK A01 T10111046  RH  077%=      5-min Rain = 0
KAM2 080928Z 01007KT M01/M05 A3029 RMK A01 T10111046  RH  077%=      5-min Rain = 0
KAM2 080929Z 01007KT M01/M05 A3029 RMK A01 T10111046  RH  077%=      5-min Rain = 0
KAM2 080930Z 02006KT M01/M05 A3029 RMK A01 T10111046  RH  077%=      5-min Rain = 0
KAM2 080931Z 02005KT M01/M05 A3029 RMK A01 T10111046  RH  077%=      5-min Rain = 0
KAM2 080932Z 03006KT M01/M05 A3029 RMK A01 T10111046  RH  077%=      5-min Rain = 0
KAM2 080933Z 02006KT M01/M05 A3029 RMK A01 T10111047  RH  077%=      5-min Rain = 0
KAM2 080934Z 03005KT M01/M05 A3029 RMK A01 T10111047  RH  077%=      5-min Rain = 0
KAM2 080935Z 02005KT M01/M05 A3029 RMK A01 T10111047  RH  077%=      5-min Rain = 0
KAM2 080936Z 01007KT M01/M05 A3029 RMK A01 T10111046  RH  077%=      5-min Rain = 0
KAM2 080937Z 02007KT M01/M05 A3029 RMK A01 T10111047  RH  077%=      5-min Rain = 0
KAM2 080938Z 02006KT M01/M05 A3029 RMK A01 T10111048  RH  076%=      5-min Rain = 0
KAM2 080939Z 02007KT M01/M05 A3029 RMK A01 T10111047  RH  076%=      5-min Rain = 0
KAM2 080940Z 02006KT M01/M05 A3029 RMK A01 T10121048  RH  076%=      5-min Rain = 0
KAM2 080941Z 02006KT M01/M05 A3029 RMK A01 T10121048  RH  076%=      5-min Rain = 0
KAM2 080942Z 02006KT M01/M05 A3029 RMK A01 T10111048  RH  076%=      5-min Rain = 0
KAM2 080943Z 03006KT M01/M05 A3029 RMK A01 T10121047  RH  077%=      5-min Rain = 0
KAM2 080944Z 03005KT M01/M05 A3029 RMK A01 T10121047  RH  077%=      5-min Rain = 0
KAM2 080945Z 03004KT M01/M05 A3029 RMK A01 T10121047  RH  077%=      5-min Rain = 0
KAM2 080946Z 03004KT M01/M05 A303 RMK A01 T10121046  RH  077%=      5-min Rain = 0
KAM2 080947Z 02004KT M01/M05 A303 RMK A01 T10121046  RH  077%=      5-min Rain = 0
KAM2 080948Z 03003KT M01/M05 A303 RMK A01 T10121046  RH  078%=      5-min Rain = 0
KAM2 080949Z 02003KT M01/M05 A303 RMK A01 T10121046  RH  078%=      5-min Rain = 0
KAM2 080950Z 02003KT M01/M05 A303 RMK A01 T10111045  RH  078%=      5-min Rain = 0
KAM2 080951Z 02004KT M01/M05 A303 RMK A01 T10111045  RH  078%=      5-min Rain = 0
KAM2 080952Z 02004KT M01/M05 A303 RMK A01 T10111045  RH  078%=      5-min Rain = 0
KAM2 080953Z 02003KT M01/M05 A303 RMK A01 T10111045  RH  078%=      5-min Rain = 0
KAM2 080954Z 01004KT M01/M04 A303 RMK A01 T10111044  RH  078%=      5-min Rain = 0
KAM2 080955Z 00003KT M01/M05 A303 RMK A01 T10111045  RH  078%=      5-min Rain = 0
KAM2 080956Z 36003KT M01/M04 A303 RMK A01 T10111044  RH  078%=      5-min Rain = 0
KAM2 080957Z 35003KT M01/M04 A303 RMK A01 T10111044  RH  078%=      5-min Rain = 0
KAM2 080958Z 35004KT M01/M05 A303 RMK A01 T10121045  RH  078%=      5-min Rain = 0
KAM2 080959Z 34004KT M01/M05 A303 RMK A01 T10111045  RH  078%=      5-min Rain = 0
KAM2 081000Z 35004KT M01/M05 A3029 RMK A01 T10121046  RH  078%=      5-min Rain = 0
KAM2 081001Z 35005KT M01/M05 A3029 RMK A01 T10121046  RH  078%=      5-min Rain = 0
KAM2 081002Z 35004KT M01/M05 A3029 RMK A01 T10121047  RH  077%=      5-min Rain = 0
KAM2 081003Z 36004KT M01/M05 A3029 RMK A01 T10121046  RH  077%=      5-min Rain = 0
KAM2 081004Z 36005KT M01/M05 A3029 RMK A01 T10121046  RH  077%=      5-min Rain = 0
KAM2 081005Z 00004KT M01/M05 A3029 RMK A01 T10121046  RH  077%=      5-min Rain = 0
KAM2 081006Z 00003KT M01/M05 A3029 RMK A01 T10121046  RH  077%=      5-min Rain = 0
KAM2 081007Z 01004KT M01/M05 A3029 RMK A01 T10121046  RH  077%=      5-min Rain = 0
KAM2 081008Z 01004KT M01/M05 A3029 RMK A01 T10121047  RH  077%=      5-min Rain = 0
KAM2 081009Z 00003KT M01/M05 A3029 RMK A01 T10121047  RH  077%=      5-min Rain = 0
KAM2 081010Z 00004KT M01/M05 A3029 RMK A01 T10121046  RH  078%=      5-min Rain = 0
KAM2 081011Z 01004KT M01/M05 A3029 RMK A01 T10121046  RH  078%=      5-min Rain = 0
KAM2 081012Z 00004KT M01/M05 A3029 RMK A01 T10121046  RH  077%=      5-min Rain = 0
KAM2 081013Z 00005KT M01/M05 A3029 RMK A01 T10121047  RH  077%=      5-min Rain = 0
KAM2 081014Z 00005KT M01/M05 A3029 RMK A01 T10121047  RH  077%=      5-min Rain = 0
KAM2 081015Z 00005KT M01/M05 A3028 RMK A01 T10121047  RH  077%=      5-min Rain = 0
KAM2 081016Z 00006KT M01/M05 A3028 RMK A01 T10131047  RH  077%=      5-min Rain = 0
KAM2 081017Z 35006KT M01/M05 A3028 RMK A01 T10131047  RH  077%=      5-min Rain = 0
KAM2 081018Z 00007KT M01/M05 A3028 RMK A01 T10131047  RH  077%=      5-min Rain = 0
KAM2 081019Z 36007KT M01/M05 A3028 RMK A01 T10131048  RH  077%=      5-min Rain = 0
KAM2 081020Z 36007KT M01/M05 A3028 RMK A01 T10131048  RH  077%=      5-min Rain = 0
KAM2 081021Z 35007KT M01/M05 A3028 RMK A01 T10131048  RH  077%=      5-min Rain = 0
KAM2 081022Z 36007KT M01/M05 A3028 RMK A01 T10131047  RH  077%=      5-min Rain = 0
KAM2 081023Z 36006KT M01/M05 A3028 RMK A01 T10131048  RH  077%=      5-min Rain = 0
KAM2 081024Z 36006KT M01/M05 A3028 RMK A01 T10131048  RH  077%=      5-min Rain = 0
KAM2 081025Z 36005KT M01/M05 A3028 RMK A01 T10131047  RH  078%=      5-min Rain = 0
KAM2 081026Z 36004KT M01/M05 A3029 RMK A01 T10131047  RH  078%=      5-min Rain = 0
KAM2 081027Z 36004KT M01/M05 A3029 RMK A01 T10131048  RH  078%=      5-min Rain = 0
KAM2 081028Z 35002KT M01/M05 A3029 RMK A01 T10131048  RH  078%=      5-min Rain = 0
KAM2 081029Z 35002KT M01/M05 A3029 RMK A01 T10131047  RH  078%=      5-min Rain = 0
KAM2 081030Z 34002KT M01/M05 A3029 RMK A01 T10131047  RH  078%=      5-min Rain = 0
KAM2 081031Z 35003KT M01/M05 A3029 RMK A01 T10131047  RH  078%=      5-min Rain = 0
KAM2 081032Z 35004KT M01/M05 A3029 RMK A01 T10131047  RH  078%=      5-min Rain = 0
KAM2 081033Z 35005KT M01/M05 A3029 RMK A01 T10131048  RH  077%=      5-min Rain = 0
KAM2 081034Z 36005KT M01/M05 A3029 RMK A01 T10131049  RH  077%=      5-min Rain = 0
KAM2 081035Z 36005KT M01/M05 A3028 RMK A01 T10131048  RH  077%=      5-min Rain = 0
KAM2 081036Z 36005KT M01/M05 A3028 RMK A01 T10131048  RH  077%=      5-min Rain = 0
KAM2 081037Z 36005KT M01/M05 A3028 RMK A01 T10141048  RH  078%=      5-min Rain = 0
KAM2 081038Z 00005KT M01/M05 A3028 RMK A01 T10141047  RH  078%=      5-min Rain = 0
KAM2 081039Z 00006KT M01/M05 A3028 RMK A01 T10141048  RH  078%=      5-min Rain = 0
KAM2 081040Z 35006KT M01/M05 A3028 RMK A01 T10141048  RH  078%=      5-min Rain = 0
KAM2 081041Z 35006KT M01/M05 A3028 RMK A01 T10141048  RH  077%=      5-min Rain = 0
KAM2 081042Z 36005KT M01/M05 A3028 RMK A01 T10141049  RH  077%=      5-min Rain = 0
KAM2 081043Z 36005KT M01/M05 A3028 RMK A01 T10141049  RH  077%=      5-min Rain = 0
KAM2 081044Z 00005KT M01/M05 A3028 RMK A01 T10141049  RH  077%=      5-min Rain = 0
KAM2 081045Z 00005KT M01/M05 A3028 RMK A01 T10141049  RH  077%=      5-min Rain = 0
KAM2 081046Z 00005KT M01/M05 A3028 RMK A01 T10141049  RH  077%=      5-min Rain = 0
KAM2 081047Z 36004KT M01/M05 A3028 RMK A01 T10141049  RH  077%=      5-min Rain = 0
KAM2 081048Z 00005KT M01/M05 A3028 RMK A01 T10141049  RH  077%=      5-min Rain = 0
KAM2 081049Z 35005KT M01/M05 A3028 RMK A01 T10141049  RH  077%=      5-min Rain = 0
KAM2 081050Z 36004KT M01/M05 A3028 RMK A01 T10141049  RH  077%=      5-min Rain = 0
KAM2 081051Z 34003KT M02/M05 A3029 RMK A01 T10151049  RH  077%=      5-min Rain = 0
KAM2 081052Z 35004KT M01/M05 A3029 RMK A01 T10141049  RH  077%=      5-min Rain = 0
KAM2 081053Z 35005KT M01/M05 A3029 RMK A01 T10141050  RH  077%=      5-min Rain = 0
KAM2 081054Z 35004KT M01/M05 A3028 RMK A01 T10141050  RH  077%=      5-min Rain = 0
KAM2 081055Z 35005KT M01/M05 A3028 RMK A01 T10141050  RH  077%=      5-min Rain = 0
KAM2 081056Z 35005KT M01/M05 A3028 RMK A01 T10141050  RH  077%=      5-min Rain = 0
KAM2 081057Z 36006KT M01/M05 A3028 RMK A01 T10141050  RH  077%=      5-min Rain = 0
KAM2 081058Z 00006KT M01/M05 A3028 RMK A01 T10141050  RH  077%=      5-min Rain = 0
KAM2 081059Z 00005KT M01/M05 A3028 RMK A01 T10141051  RH  076%=      5-min Rain = 0
KAM2 081100Z 01005KT M02/M05 A3028 RMK A01 T10151051  RH  076%=      5-min Rain = 0
KAM2 081101Z 00006KT M02/M05 A3028 RMK A01 T10151051  RH  077%=      5-min Rain = 0
KAM2 081102Z 01005KT M02/M05 A3028 RMK A01 T10151050  RH  077%=      5-min Rain = 0
KAM2 081103Z 01006KT M02/M05 A3028 RMK A01 T10151051  RH  077%=      5-min Rain = 0
KAM2 081104Z 35006KT M01/M05 A3028 RMK A01 T10141050  RH  077%=      5-min Rain = 0
KAM2 081105Z 34007KT M02/M05 A3028 RMK A01 T10151051  RH  076%=      5-min Rain = 0
KAM2 081106Z 35006KT M02/M05 A3028 RMK A01 T10151051  RH  076%=      5-min Rain = 0
KAM2 081107Z 35008KT M02/M05 A3028 RMK A01 T10151052  RH  076%=      5-min Rain = 0
KAM2 081108Z 35008KT M02/M05 A3028 RMK A01 T10151051  RH  076%=      5-min Rain = 0
KAM2 081109Z 35007KT M02/M05 A3027 RMK A01 T10161052  RH  076%=      5-min Rain = 0
KAM2 081110Z 35007KT M02/M05 A3027 RMK A01 T10161052  RH  076%=      5-min Rain = 0
KAM2 081111Z 35007KT M02/M05 A3027 RMK A01 T10161052  RH  077%=      5-min Rain = 0
KAM2 081112Z 35007KT M02/M05 A3028 RMK A01 T10161051  RH  077%=      5-min Rain = 0
KAM2 081113Z 35007KT M02/M05 A3028 RMK A01 T10151051  RH  076%=      5-min Rain = 0
KAM2 081114Z 35005KT M02/M05 A3028 RMK A01 T10161052  RH  076%=      5-min Rain = 0
KAM2 081115Z 35006KT M02/M05 A3028 RMK A01 T10151051  RH  076%=      5-min Rain = 0
KAM2 081116Z 35006KT M02/M05 A3028 RMK A01 T10161052  RH  076%=      5-min Rain = 0
KAM2 081117Z 35006KT M02/M05 A3028 RMK A01 T10161052  RH  076%=      5-min Rain = 0
KAM2 081118Z 35005KT M02/M05 A3028 RMK A01 T10161053  RH  076%=      5-min Rain = 0
KAM2 081119Z 35006KT M02/M05 A3028 RMK A01 T10161053  RH  076%=      5-min Rain = 0
KAM2 081120Z 35005KT M02/M05 A3028 RMK A01 T10161053  RH  076%=      5-min Rain = 0
KAM2 081121Z 36007KT M02/M05 A3028 RMK A01 T10161053  RH  076%=      5-min Rain = 0
KAM2 081122Z 36007KT M02/M05 A3028 RMK A01 T10161054  RH  075%=      5-min Rain = 0
KAM2 081123Z 36005KT M02/M05 A3028 RMK A01 T10161054  RH  075%=      5-min Rain = 0
KAM2 081124Z 00006KT M02/M05 A3028 RMK A01 T10161054  RH  076%=      5-min Rain = 0
KAM2 081125Z 36006KT M02/M05 A3028 RMK A01 T10161053  RH  076%=      5-min Rain = 0
KAM2 081126Z 35006KT M02/M05 A3028 RMK A01 T10161054  RH  076%=      5-min Rain = 0
KAM2 081127Z 35005KT M02/M05 A3028 RMK A01 T10161053  RH  076%=      5-min Rain = 0
KAM2 081128Z 35007KT M02/M05 A3028 RMK A01 T10161053  RH  076%=      5-min Rain = 0
KAM2 081129Z 35007KT M02/M05 A3028 RMK A01 T10161054  RH  076%=      5-min Rain = 0
KAM2 081130Z 36007KT M02/M05 A3028 RMK A01 T10161054  RH  075%=      5-min Rain = 0
KAM2 081131Z 35005KT M02/M06 A3028 RMK A01 T10161055  RH  075%=      5-min Rain = 0
KAM2 081132Z 35006KT M02/M06 A3029 RMK A01 T10161055  RH  075%=      5-min Rain = 0
KAM2 081133Z 35006KT M02/M06 A3029 RMK A01 T10161055  RH  075%=      5-min Rain = 0
KAM2 081134Z 36007KT M02/M06 A3029 RMK A01 T10161055  RH  075%=      5-min Rain = 0
KAM2 081135Z 35007KT M02/M06 A3029 RMK A01 T10161056  RH  075%=      5-min Rain = 0
KAM2 081136Z 35007KT M02/M06 A3028 RMK A01 T10161056  RH  074%=      5-min Rain = 0
KAM2 081137Z 35007KT M02/M06 A3028 RMK A01 T10161056  RH  074%=      5-min Rain = 0
KAM2 081138Z 35005KT M02/M06 A3028 RMK A01 T10161056  RH  074%=      5-min Rain = 0
KAM2 081139Z 35005KT M02/M06 A3028 RMK A01 T10171056  RH  074%=      5-min Rain = 0
KAM2 081140Z 36006KT M02/M06 A3029 RMK A01 T10161056  RH  075%=      5-min Rain = 0
KAM2 081141Z 36006KT M02/M06 A3029 RMK A01 T10171056  RH  074%=      5-min Rain = 0
KAM2 081142Z 36006KT M02/M06 A3029 RMK A01 T10161056  RH  074%=      5-min Rain = 0
KAM2 081143Z 00005KT M02/M06 A3029 RMK A01 T10171057  RH  074%=      5-min Rain = 0
KAM2 081144Z 00006KT M02/M06 A3029 RMK A01 T10171057  RH  074%=      5-min Rain = 0
KAM2 081145Z 00006KT M02/M06 A3029 RMK A01 T10171057  RH  074%=      5-min Rain = 0
KAM2 081146Z 00005KT M02/M06 A3029 RMK A01 T10171056  RH  074%=      5-min Rain = 0
KAM2 081147Z 36004KT M02/M06 A3029 RMK A01 T10171057  RH  074%=      5-min Rain = 0
KAM2 081148Z 01005KT M02/M06 A3029 RMK A01 T10171056  RH  074%=      5-min Rain = 0
KAM2 081149Z 36005KT M02/M06 A3029 RMK A01 T10171057  RH  074%=      5-min Rain = 0
KAM2 081150Z 36006KT M02/M06 A3029 RMK A01 T10171057  RH  074%=      5-min Rain = 0
KAM2 081151Z 00006KT M02/M06 A3029 RMK A01 T10171057  RH  074%=      5-min Rain = 0
KAM2 081152Z 01006KT M02/M06 A3029 RMK A01 T10161056  RH  074%=      5-min Rain = 0
KAM2 081153Z 01007KT M02/M06 A3029 RMK A01 T10171057  RH  074%=      5-min Rain = 0
KAM2 081154Z 01006KT M02/M06 A3029 RMK A01 T10171057  RH  074%=      5-min Rain = 0
KAM2 081155Z 01005KT M02/M06 A3029 RMK A01 T10171057  RH  074%=      5-min Rain = 0
KAM2 081156Z 00005KT M02/M06 A3029 RMK A01 T10171056  RH  074%=      5-min Rain = 0
KAM2 081157Z 00005KT M02/M06 A3029 RMK A01 T10171056  RH  074%=      5-min Rain = 0
KAM2 081158Z 35005KT M02/M06 A3029 RMK A01 T10171057  RH  074%=      5-min Rain = 0
KAM2 081159Z 36005KT M02/M06 A3029 RMK A01 T10161057  RH  074%=      5-min Rain = 0
KAM2 081200Z 36005KT M02/M06 A3029 RMK A01 T10171057  RH  074%=      5-min Rain = 0
KAM2 081201Z 00006KT M02/M06 A3029 RMK A01 T10171057  RH  074%=      5-min Rain = 0
KAM2 081202Z 00005KT M02/M06 A3029 RMK A01 T10171057  RH  074%=      5-min Rain = 0
KAM2 081203Z 01005KT M02/M06 A3029 RMK A01 T10171057  RH  074%=      5-min Rain = 0
KAM2 081204Z 00005KT M02/M06 A3029 RMK A01 T10161056  RH  074%=      5-min Rain = 0
KAM2 081205Z 36005KT M02/M06 A3029 RMK A01 T10161057  RH  074%=      5-min Rain = 0
KAM2 081206Z 36006KT M02/M06 A3029 RMK A01 T10171057  RH  074%=      5-min Rain = 0
KAM2 081207Z 36005KT M02/M06 A3029 RMK A01 T10171057  RH  074%=      5-min Rain = 0
KAM2 081208Z 00006KT M02/M06 A3029 RMK A01 T10161057  RH  074%=      5-min Rain = 0
KAM2 081209Z 00006KT M02/M06 A3029 RMK A01 T10171057  RH  074%=      5-min Rain = 0
KAM2 081210Z 00005KT M02/M06 A3029 RMK A01 T10171057  RH  074%=      5-min Rain = 0
KAM2 081211Z 00005KT M02/M06 A3029 RMK A01 T10161056  RH  074%=      5-min Rain = 0
KAM2 081212Z 36006KT M02/M06 A3029 RMK A01 T10161056  RH  074%=      5-min Rain = 0
KAM2 081213Z 00005KT M02/M06 A3029 RMK A01 T10171057  RH  074%=      5-min Rain = 0
KAM2 081214Z 01006KT M02/M06 A3029 RMK A01 T10171057  RH  074%=      5-min Rain = 0
KAM2 081215Z 00006KT M02/M06 A3029 RMK A01 T10171057  RH  074%=      5-min Rain = 0
KAM2 081216Z 36005KT M02/M06 A3029 RMK A01 T10171057  RH  074%=      5-min Rain = 0
KAM2 081217Z 00005KT M02/M06 A3029 RMK A01 T10171057  RH  074%=      5-min Rain = 0
KAM2 081218Z 01006KT M02/M06 A303 RMK A01 T10171057  RH  074%=      5-min Rain = 0
KAM2 081219Z 36005KT M02/M06 A303 RMK A01 T10171058  RH  074%=      5-min Rain = 0
KAM2 081220Z 00005KT M02/M06 A303 RMK A01 T10161057  RH  074%=      5-min Rain = 0
KAM2 081221Z 00005KT M02/M06 A303 RMK A01 T10171058  RH  074%=      5-min Rain = 0
KAM2 081222Z 01005KT M02/M06 A303 RMK A01 T10171058  RH  073%=      5-min Rain = 0
KAM2 081223Z 01005KT M02/M06 A3029 RMK A01 T10171058  RH  073%=      5-min Rain = 0
KAM2 081224Z 01004KT M02/M06 A3029 RMK A01 T10171058  RH  073%=      5-min Rain = 0
KAM2 081225Z 01005KT M02/M06 A3029 RMK A01 T10171057  RH  074%=      5-min Rain = 0
KAM2 081226Z 01005KT M02/M06 A3029 RMK A01 T10171057  RH  074%=      5-min Rain = 0
KAM2 081227Z 01006KT M02/M06 A3029 RMK A01 T10161056  RH  074%=      5-min Rain = 0
KAM2 081228Z 01006KT M02/M06 A3029 RMK A01 T10161057  RH  074%=      5-min Rain = 0
KAM2 081229Z 01007KT M02/M06 A3029 RMK A01 T10171057  RH  074%=      5-min Rain = 0
KAM2 081230Z 01007KT M02/M06 A3029 RMK A01 T10171059  RH  073%=      5-min Rain = 0
KAM2 081231Z 01006KT M02/M06 A3029 RMK A01 T10171059  RH  073%=      5-min Rain = 0
KAM2 081232Z 01006KT M02/M06 A3029 RMK A01 T10171059  RH  073%=      5-min Rain = 0
KAM2 081233Z 01006KT M02/M06 A3029 RMK A01 T10171059  RH  073%=      5-min Rain = 0
KAM2 081234Z 01005KT M02/M06 A3029 RMK A01 T10171058  RH  073%=      5-min Rain = 0
KAM2 081235Z 01007KT M02/M06 A3029 RMK A01 T10171059  RH  073%=      5-min Rain = 0
KAM2 081236Z 01006KT M02/M06 A3029 RMK A01 T10171059  RH  073%=      5-min Rain = 0
KAM2 081237Z 01006KT M02/M06 A3029 RMK A01 T10171059  RH  073%=      5-min Rain = 0
KAM2 081238Z 01007KT M02/M06 A3029 RMK A01 T10171059  RH  073%=      5-min Rain = 0
KAM2 081239Z 01006KT M02/M06 A3029 RMK A01 T10171059  RH  073%=      5-min Rain = 0
KAM2 081240Z 01005KT M02/M06 A3029 RMK A01 T10171058  RH  073%=      5-min Rain = 0
KAM2 081241Z 00005KT M02/M06 A3029 RMK A01 T10171058  RH  074%=      5-min Rain = 0
KAM2 081242Z 00005KT M02/M06 A3029 RMK A01 T10171057  RH  074%=      5-min Rain = 0
KAM2 081243Z 36005KT M02/M06 A3029 RMK A01 T10171057  RH  074%=      5-min Rain = 0
KAM2 081244Z 00008KT M02/M06 A3029 RMK A01 T10171057  RH  074%=      5-min Rain = 0
KAM2 081245Z 00008KT M02/M06 A3029 RMK A01 T10171057  RH  074%=      5-min Rain = 0
KAM2 081246Z 00009KT M02/M06 A3029 RMK A01 T10171057  RH  074%=      5-min Rain = 0
KAM2 081247Z 00008KT M02/M06 A3029 RMK A01 T10171058  RH  074%=      5-min Rain = 0
KAM2 081248Z 00008KT M02/M06 A3029 RMK A01 T10171058  RH  074%=      5-min Rain = 0
KAM2 081249Z 00007KT M02/M06 A3029 RMK A01 T10171057  RH  074%=      5-min Rain = 0
KAM2 081250Z 00008KT M02/M06 A3029 RMK A01 T10171057  RH  074%=      5-min Rain = 0
KAM2 081251Z 00007KT M02/M06 A3029 RMK A01 T10171058  RH  074%=      5-min Rain = 0
KAM2 081252Z 35006KT M02/M06 A303 RMK A01 T10181058  RH  074%=      5-min Rain = 0
KAM2 081253Z 36008KT M02/M06 A303 RMK A01 T10181058  RH  074%=      5-min Rain = 0
KAM2 081254Z 00007KT M02/M06 A303 RMK A01 T10181058  RH  074%=      5-min Rain = 0
KAM2 081255Z 36007KT M02/M06 A303 RMK A01 T10171058  RH  074%=      5-min Rain = 0
KAM2 081256Z 00008KT M02/M06 A303 RMK A01 T10181058  RH  074%=      5-min Rain = 0
KAM2 081257Z 01007KT M02/M06 A303 RMK A01 T10181058  RH  074%=      5-min Rain = 0
KAM2 081258Z 00007KT M02/M06 A3029 RMK A01 T10171057  RH  074%=      5-min Rain = 0
KAM2 081259Z 36007KT M02/M06 A3029 RMK A01 T10171057  RH  075%=      5-min Rain = 0
KAM2 081300Z 36007KT M02/M06 A3029 RMK A01 T10171056  RH  075%=      5-min Rain = 0
KAM2 081301Z 36007KT M02/M06 A303 RMK A01 T10181057  RH  075%=      5-min Rain = 0
KAM2 081302Z 35007KT M02/M06 A303 RMK A01 T10181057  RH  075%=      5-min Rain = 0
KAM2 081303Z 36008KT M02/M06 A303 RMK A01 T10181057  RH  074%=      5-min Rain = 0
KAM2 081304Z 36007KT M02/M06 A303 RMK A01 T10181058  RH  074%=      5-min Rain = 0
KAM2 081305Z 36006KT M02/M06 A303 RMK A01 T10181057  RH  074%=      5-min Rain = 0
KAM2 081306Z 35006KT M02/M06 A303 RMK A01 T10181057  RH  075%=      5-min Rain = 0
KAM2 081307Z 35007KT M02/M06 A303 RMK A01 T10181057  RH  075%=      5-min Rain = 0
KAM2 081308Z 36007KT M02/M06 A303 RMK A01 T10181057  RH  075%=      5-min Rain = 0
KAM2 081309Z 35007KT M02/M06 A303 RMK A01 T10181057  RH  075%=      5-min Rain = 0
KAM2 081310Z 35006KT M02/M06 A303 RMK A01 T10181057  RH  075%=      5-min Rain = 0
KAM2 081311Z 35007KT M02/M06 A303 RMK A01 T10181057  RH  075%=      5-min Rain = 0
KAM2 081312Z 35005KT M02/M06 A303 RMK A01 T10181057  RH  074%=      5-min Rain = 0
KAM2 081313Z 35006KT M02/M06 A303 RMK A01 T10181058  RH  074%=      5-min Rain = 0
KAM2 081314Z 36006KT M02/M06 A303 RMK A01 T10181058  RH  074%=      5-min Rain = 0
KAM2 081315Z 36005KT M02/M06 A303 RMK A01 T10181058  RH  074%=      5-min Rain = 0
KAM2 081316Z 35006KT M02/M06 A303 RMK A01 T10181058  RH  074%=      5-min Rain = 0
KAM2 081317Z 36007KT M02/M06 A303 RMK A01 T10181057  RH  075%=      5-min Rain = 0
KAM2 081318Z 00007KT M02/M06 A303 RMK A01 T10181057  RH  075%=      5-min Rain = 0
KAM2 081319Z 36007KT M02/M06 A303 RMK A01 T10181057  RH  075%=      5-min Rain = 0
KAM2 081320Z 00007KT M02/M06 A303 RMK A01 T10181057  RH  075%=      5-min Rain = 0
KAM2 081321Z 00007KT M02/M06 A303 RMK A01 T10181057  RH  075%=      5-min Rain = 0
KAM2 081322Z 00007KT M02/M06 A303 RMK A01 T10181057  RH  075%=      5-min Rain = 0
KAM2 081323Z 36006KT M02/M06 A303 RMK A01 T10181057  RH  075%=      5-min Rain = 0
KAM2 081324Z 36006KT M02/M06 A303 RMK A01 T10191057  RH  075%=      5-min Rain = 0
KAM2 081325Z 36007KT M02/M06 A303 RMK A01 T10191057  RH  075%=      5-min Rain = 0
KAM2 081326Z 00007KT M02/M06 A303 RMK A01 T10191057  RH  075%=      5-min Rain = 0
KAM2 081327Z 36006KT M02/M06 A303 RMK A01 T10191057  RH  075%=      5-min Rain = 0
KAM2 081328Z 00007KT M02/M06 A303 RMK A01 T10191057  RH  075%=      5-min Rain = 0
KAM2 081329Z 36006KT M02/M06 A303 RMK A01 T10191057  RH  075%=      5-min Rain = 0
KAM2 081330Z 00006KT M02/M06 A303 RMK A01 T10191057  RH  075%=      5-min Rain = 0
KAM2 081331Z 00005KT M02/M06 A303 RMK A01 T10201057  RH  076%=      5-min Rain = 0
KAM2 081332Z 01006KT M02/M06 A303 RMK A01 T10201057  RH  076%=      5-min Rain = 0
KAM2 081333Z 00005KT M02/M06 A303 RMK A01 T10201056  RH  076%=      5-min Rain = 0
KAM2 081334Z 01005KT M02/M06 A303 RMK A01 T10201057  RH  076%=      5-min Rain = 0
KAM2 081335Z 01005KT M02/M06 A303 RMK A01 T10201057  RH  076%=      5-min Rain = 0
KAM2 081336Z 01005KT M02/M06 A303 RMK A01 T10201056  RH  076%=      5-min Rain = 0
KAM2 081337Z 00005KT M02/M06 A303 RMK A01 T10201057  RH  076%=      5-min Rain = 0
KAM2 081338Z 00006KT M02/M06 A303 RMK A01 T10201057  RH  076%=      5-min Rain = 0
KAM2 081339Z 00006KT M02/M06 A303 RMK A01 T10211058  RH  076%=      5-min Rain = 0
KAM2 081340Z 36006KT M02/M06 A303 RMK A01 T10211057  RH  076%=      5-min Rain = 0
KAM2 081341Z 36005KT M02/M06 A303 RMK A01 T10211058  RH  076%=      5-min Rain = 0
KAM2 081342Z 00005KT M02/M06 A303 RMK A01 T10211057  RH  076%=      5-min Rain = 0
KAM2 081343Z 36005KT M02/M06 A303 RMK A01 T10211057  RH  076%=      5-min Rain = 0
KAM2 081344Z 36005KT M02/M06 A303 RMK A01 T10221057  RH  076%=      5-min Rain = 0
KAM2 081345Z 36004KT M02/M06 A303 RMK A01 T10221057  RH  077%=      5-min Rain = 0
KAM2 081346Z 36004KT M02/M06 A303 RMK A01 T10221057  RH  077%=      5-min Rain = 0
KAM2 081347Z 36004KT M02/M06 A303 RMK A01 T10221057  RH  077%=      5-min Rain = 0
KAM2 081348Z 36005KT M02/M06 A303 RMK A01 T10221057  RH  077%=      5-min Rain = 0
KAM2 081349Z 36005KT M02/M06 A303 RMK A01 T10221057  RH  077%=      5-min Rain = 0
KAM2 081350Z 00004KT M02/M06 A303 RMK A01 T10231057  RH  077%=      5-min Rain = 0
KAM2 081351Z 00006KT M02/M06 A303 RMK A01 T10221057  RH  077%=      5-min Rain = 0
KAM2 081352Z 00005KT M02/M06 A303 RMK A01 T10231057  RH  077%=      5-min Rain = 0
KAM2 081353Z 01005KT M02/M06 A303 RMK A01 T10231058  RH  077%=      5-min Rain = 0
KAM2 081354Z 01005KT M02/M06 A303 RMK A01 T10231058  RH  077%=      5-min Rain = 0
KAM2 081355Z 01005KT M02/M06 A303 RMK A01 T10231057  RH  077%=      5-min Rain = 0
KAM2 081356Z 01005KT M02/M06 A303 RMK A01 T10231058  RH  077%=      5-min Rain = 0
KAM2 081357Z 01005KT M02/M06 A303 RMK A01 T10231057  RH  077%=      5-min Rain = 0
KAM2 081358Z 02005KT M02/M06 A303 RMK A01 T10231057  RH  077%=      5-min Rain = 0
KAM2 081359Z 01004KT M02/M06 A303 RMK A01 T10231057  RH  077%=      5-min Rain = 0
KAM2 081400Z 01005KT M02/M06 A303 RMK A01 T10221057  RH  077%=      5-min Rain = 0
KAM2 081401Z 01005KT M02/M06 A303 RMK A01 T10231057  RH  078%=      5-min Rain = 0
KAM2 081402Z 01005KT M02/M06 A303 RMK A01 T10231056  RH  078%=      5-min Rain = 0
KAM2 081403Z 02005KT M02/M06 A303 RMK A01 T10231056  RH  078%=      5-min Rain = 0
KAM2 081404Z 01005KT M02/M06 A303 RMK A01 T10231057  RH  077%=      5-min Rain = 0
KAM2 081405Z 01005KT M02/M06 A303 RMK A01 T10221057  RH  077%=      5-min Rain = 0
KAM2 081406Z 02005KT M02/M06 A303 RMK A01 T10221057  RH  077%=      5-min Rain = 0
KAM2 081407Z 01005KT M02/M06 A3031 RMK A01 T10221058  RH  077%=      5-min Rain = 0
KAM2 081408Z 01006KT M02/M06 A3031 RMK A01 T10221058  RH  077%=      5-min Rain = 0
KAM2 081409Z 01006KT M02/M06 A3031 RMK A01 T10221059  RH  076%=      5-min Rain = 0
KAM2 081410Z 02007KT M02/M06 A3031 RMK A01 T10211059  RH  076%=      5-min Rain = 0
KAM2 081411Z 01008KT M02/M06 A3031 RMK A01 T10221061  RH  074%=      5-min Rain = 0
KAM2 081412Z 01008KT M02/M06 A303 RMK A01 T10221063  RH  073%=      5-min Rain = 0
KAM2 081413Z 01008KT M02/M06 A303 RMK A01 T10221063  RH  073%=      5-min Rain = 0
KAM2 081414Z 01008KT M02/M06 A303 RMK A01 T10221064  RH  073%=      5-min Rain = 0
KAM2 081415Z 02007KT M02/M06 A303 RMK A01 T10221064  RH  073%=      5-min Rain = 0
KAM2 081416Z 01007KT M02/M06 A303 RMK A01 T10221064  RH  073%=      5-min Rain = 0
KAM2 081417Z 02008KT M02/M06 A303 RMK A01 T10211064  RH  073%=      5-min Rain = 0
KAM2 081418Z 02006KT M02/M06 A3031 RMK A01 T10221064  RH  073%=      5-min Rain = 0
KAM2 081419Z 02005KT M02/M06 A3031 RMK A01 T10221064  RH  073%=      5-min Rain = 0
KAM2 081420Z 02006KT M02/M06 A3031 RMK A01 T10221063  RH  073%=      5-min Rain = 0
KAM2 081421Z 02006KT M02/M06 A3031 RMK A01 T10211063  RH  073%=      5-min Rain = 0
KAM2 081422Z 02006KT M02/M06 A3031 RMK A01 T10221064  RH  073%=      5-min Rain = 0
KAM2 081423Z 02006KT M02/M06 A3031 RMK A01 T10221064  RH  073%=      5-min Rain = 0
KAM2 081424Z 02006KT M02/M06 A3031 RMK A01 T10221064  RH  073%=      5-min Rain = 0
KAM2 081425Z 02007KT M02/M07 A3031 RMK A01 T10221065  RH  072%=      5-min Rain = 0
KAM2 081426Z 02007KT M02/M07 A3031 RMK A01 T10211065  RH  072%=      5-min Rain = 0
KAM2 081427Z 02006KT M02/M07 A3031 RMK A01 T10221066  RH  072%=      5-min Rain = 0
KAM2 081428Z 02008KT M02/M07 A3031 RMK A01 T10221067  RH  071%=      5-min Rain = 0
KAM2 081429Z 02006KT M02/M07 A3031 RMK A01 T10211067  RH  071%=      5-min Rain = 0
KAM2 081430Z 02006KT M02/M07 A3031 RMK A01 T10211067  RH  071%=      5-min Rain = 0
KAM2 081431Z 02005KT M02/M07 A3031 RMK A01 T10211067  RH  071%=      5-min Rain = 0
KAM2 081432Z 01007KT M02/M07 A3031 RMK A01 T10211067  RH  071%=      5-min Rain = 0
KAM2 081433Z 02006KT M02/M07 A3031 RMK A01 T10211068  RH  070%=      5-min Rain = 0
KAM2 081434Z 02007KT M02/M07 A3031 RMK A01 T10211067  RH  070%=      5-min Rain = 0
KAM2 081435Z 02007KT M02/M07 A3031 RMK A01 T10201068  RH  070%=      5-min Rain = 0
KAM2 081436Z 02008KT M02/M07 A3031 RMK A01 T10201069  RH  069%=      5-min Rain = 0
KAM2 081437Z 01008KT M02/M07 A3031 RMK A01 T10201069  RH  069%=      5-min Rain = 0
KAM2 081438Z 02008KT M02/M07 A3031 RMK A01 T10211070  RH  069%=      5-min Rain = 0
KAM2 081439Z 02007KT M02/M07 A3031 RMK A01 T10201070  RH  069%=      5-min Rain = 0
KAM2 081440Z 02007KT M02/M07 A3031 RMK A01 T10201069  RH  069%=      5-min Rain = 0
KAM2 081441Z 02007KT M02/M07 A3031 RMK A01 T10201070  RH  069%=      5-min Rain = 0
KAM2 081442Z 03008KT M02/M07 A3031 RMK A01 T10201070  RH  068%=      5-min Rain = 0
KAM2 081443Z 01005KT M02/M07 A3031 RMK A01 T10201070  RH  068%=      5-min Rain = 0
KAM2 081444Z 01007KT M02/M07 A3031 RMK A01 T10191069  RH  069%=      5-min Rain = 0
KAM2 081445Z 01008KT M02/M07 A3031 RMK A01 T10191069  RH  068%=      5-min Rain = 0
KAM2 081446Z 01007KT M02/M07 A3031 RMK A01 T10191069  RH  068%=      5-min Rain = 0
KAM2 081447Z 02006KT M02/M07 A3031 RMK A01 T10191069  RH  068%=      5-min Rain = 0
KAM2 081448Z 03006KT M02/M07 A3031 RMK A01 T10191069  RH  069%=      5-min Rain = 0
KAM2 081449Z 04007KT M02/M07 A3031 RMK A01 T10181068  RH  069%=      5-min Rain = 0
KAM2 081450Z 02005KT M02/M07 A3031 RMK A01 T10191069  RH  069%=      5-min Rain = 0
KAM2 081451Z 01007KT M02/M07 A3031 RMK A01 T10181067  RH  069%=      5-min Rain = 0
KAM2 081452Z 01006KT M02/M07 A3031 RMK A01 T10181067  RH  069%=      5-min Rain = 0
KAM2 081453Z 01006KT M02/M07 A3031 RMK A01 T10171066  RH  069%=      5-min Rain = 0
KAM2 081454Z 01007KT M02/M07 A3031 RMK A01 T10171066  RH  069%=      5-min Rain = 0
KAM2 081455Z 01006KT M02/M07 A3031 RMK A01 T10171066  RH  069%=      5-min Rain = 0
KAM2 081456Z 01007KT M02/M07 A3032 RMK A01 T10161065  RH  069%=      5-min Rain = 0
KAM2 081457Z 01005KT M02/M07 A3032 RMK A01 T10171066  RH  069%=      5-min Rain = 0
KAM2 081458Z 00007KT M02/M06 A3032 RMK A01 T10161064  RH  070%=      5-min Rain = 0
KAM2 081459Z 02007KT M02/M06 A3032 RMK A01 T10161064  RH  069%=      5-min Rain = 0
KAM2 081500Z 01006KT M02/M07 A3032 RMK A01 T10161065  RH  069%=      5-min Rain = 0
KAM2 081501Z 00007KT M02/M06 A3032 RMK A01 T10151064  RH  069%=      5-min Rain = 0
KAM2 081502Z 01007KT M02/M06 A3032 RMK A01 T10151064  RH  069%=      5-min Rain = 0
KAM2 081503Z 00007KT M02/M07 A3032 RMK A01 T10151065  RH  069%=      5-min Rain = 0
KAM2 081504Z 01005KT M02/M07 A3032 RMK A01 T10151065  RH  069%=      5-min Rain = 0
KAM2 081505Z 00007KT M02/M06 A3032 RMK A01 T10151064  RH  069%=      5-min Rain = 0
KAM2 081506Z 02005KT M02/M07 A3032 RMK A01 T10151065  RH  069%=      5-min Rain = 0
KAM2 081507Z 02005KT M02/M06 A3032 RMK A01 T10151063  RH  069%=      5-min Rain = 0
KAM2 081508Z 02006KT M01/M06 A3032 RMK A01 T10141064  RH  069%=      5-min Rain = 0
KAM2 081509Z 01006KT M01/M06 A3032 RMK A01 T10141063  RH  069%=      5-min Rain = 0
KAM2 081510Z 00007KT M01/M06 A3032 RMK A01 T10131063  RH  069%=      5-min Rain = 0
KAM2 081511Z 00007KT M01/M06 A3032 RMK A01 T10131064  RH  068%=      5-min Rain = 0
KAM2 081512Z 01005KT M01/M07 A3032 RMK A01 T10141065  RH  068%=      5-min Rain = 0
KAM2 081513Z 01006KT M01/M06 A3032 RMK A01 T10131064  RH  069%=      5-min Rain = 0
KAM2 081514Z 01006KT M01/M06 A3032 RMK A01 T10121063  RH  068%=      5-min Rain = 0
KAM2 081515Z 01007KT M01/M06 A3032 RMK A01 T10121064  RH  068%=      5-min Rain = 0
KAM2 081516Z 01006KT M01/M07 A3032 RMK A01 T10131065  RH  068%=      5-min Rain = 0
KAM2 081517Z 01006KT M01/M07 A3032 RMK A01 T10131066  RH  067%=      5-min Rain = 0
KAM2 081518Z 01005KT M01/M07 A3032 RMK A01 T10131066  RH  067%=      5-min Rain = 0
KAM2 081519Z 01007KT M01/M07 A3032 RMK A01 T10141066  RH  068%=      5-min Rain = 0
KAM2 081520Z 01006KT M01/M07 A3032 RMK A01 T10131065  RH  067%=      5-min Rain = 0
KAM2 081521Z 00008KT M01/M07 A3032 RMK A01 T10121067  RH  066%=      5-min Rain = 0
KAM2 081522Z 01006KT M01/M07 A3032 RMK A01 T10131069  RH  066%=      5-min Rain = 0
KAM2 081523Z 02005KT M01/M07 A3032 RMK A01 T10131068  RH  066%=      5-min Rain = 0
KAM2 081524Z 02005KT M01/M07 A3032 RMK A01 T10131066  RH  067%=      5-min Rain = 0
KAM2 081525Z 01006KT M01/M07 A3032 RMK A01 T10121066  RH  067%=      5-min Rain = 0
KAM2 081526Z 02005KT M01/M07 A3032 RMK A01 T10121066  RH  066%=      5-min Rain = 0
KAM2 081527Z 02007KT M01/M07 A3032 RMK A01 T10111067  RH  066%=      5-min Rain = 0
KAM2 081528Z 03005KT M01/M07 A3032 RMK A01 T10121069  RH  065%=      5-min Rain = 0
KAM2 081529Z 03007KT M01/M07 A3032 RMK A01 T10121069  RH  065%=      5-min Rain = 0
KAM2 081530Z 03007KT M01/M07 A3032 RMK A01 T10131071  RH  065%=      5-min Rain = 0
KAM2 081531Z 02007KT M01/M07 A3032 RMK A01 T10131072  RH  064%=      5-min Rain = 0
KAM2 081532Z 03007KT M01/M07 A3032 RMK A01 T10131072  RH  064%=      5-min Rain = 0
KAM2 081533Z 03006KT M01/M07 A3032 RMK A01 T10141074  RH  063%=      5-min Rain = 0
KAM2 081534Z 02005KT M01/M07 A3032 RMK A01 T10141072  RH  065%=      5-min Rain = 0
KAM2 081535Z 01006KT M01/M07 A3032 RMK A01 T10141070  RH  066%=      5-min Rain = 0
KAM2 081536Z 01006KT M01/M07 A3032 RMK A01 T10131071  RH  065%=      5-min Rain = 0
KAM2 081537Z 01006KT M01/M07 A3032 RMK A01 T10141071  RH  065%=      5-min Rain = 0
KAM2 081538Z 02006KT M01/M07 A3033 RMK A01 T10141071  RH  065%=      5-min Rain = 0
KAM2 081539Z 02006KT M01/M07 A3033 RMK A01 T10141071  RH  065%=      5-min Rain = 0
KAM2 081540Z 02005KT M01/M07 A3032 RMK A01 T10141071  RH  065%=      5-min Rain = 0
KAM2 081541Z 01006KT M01/M07 A3033 RMK A01 T10141070  RH  065%=      5-min Rain = 0
KAM2 081542Z 00006KT M01/M07 A3032 RMK A01 T10141070  RH  065%=      5-min Rain = 0
KAM2 081543Z 00006KT M01/M07 A3033 RMK A01 T10141072  RH  065%=      5-min Rain = 0
KAM2 081544Z 01006KT M01/M07 A3033 RMK A01 T10131072  RH  064%=      5-min Rain = 0
KAM2 081545Z 00007KT M01/M07 A3033 RMK A01 T10141073  RH  064%=      5-min Rain = 0
KAM2 081546Z 01006KT M01/M07 A3033 RMK A01 T10131073  RH  064%=      5-min Rain = 0
KAM2 081547Z 02006KT M01/M07 A3033 RMK A01 T10131073  RH  064%=      5-min Rain = 0
KAM2 081548Z 02006KT M01/M07 A3033 RMK A01 T10121073  RH  064%=      5-min Rain = 0
KAM2 081549Z 02005KT M01/M07 A3033 RMK A01 T10131074  RH  063%=      5-min Rain = 0
KAM2 081550Z 02004KT M01/M08 A3033 RMK A01 T10131075  RH  062%=      5-min Rain = 0
KAM2 081551Z 02004KT M01/M08 A3033 RMK A01 T10131075  RH  062%=      5-min Rain = 0
KAM2 081552Z 03005KT M01/M07 A3033 RMK A01 T10121074  RH  063%=      5-min Rain = 0
KAM2 081553Z 03006KT M01/M08 A3033 RMK A01 T10111076  RH  062%=      5-min Rain = 0
KAM2 081554Z 02005KT M01/M08 A3033 RMK A01 T10111077  RH  061%=      5-min Rain = 0
KAM2 081555Z 01004KT M01/M08 A3033 RMK A01 T10111077  RH  061%=      5-min Rain = 0
KAM2 081556Z 02005KT M01/M07 A3033 RMK A01 T10111074  RH  062%=      5-min Rain = 0
KAM2 081557Z 02004KT M01/M08 A3033 RMK A01 T10101075  RH  062%=      5-min Rain = 0
KAM2 081558Z 03005KT M01/M07 A3033 RMK A01 T10101074  RH  062%=      5-min Rain = 0
KAM2 081559Z 02004KT M01/M08 A3033 RMK A01 T10091075  RH  061%=      5-min Rain = 0
KAM2 081600Z 02003KT M01/M08 A3033 RMK A01 T10091076  RH  061%=      5-min Rain = 0
KAM2 081601Z 01004KT M01/M08 A3033 RMK A01 T10091075  RH  061%=      5-min Rain = 0
KAM2 081602Z 02004KT M01/M08 A3033 RMK A01 T10091075  RH  061%=      5-min Rain = 0
KAM2 081603Z 01004KT M01/M08 A3033 RMK A01 T10081075  RH  061%=      5-min Rain = 0
KAM2 081604Z 03003KT M01/M08 A3033 RMK A01 T10081076  RH  060%=      5-min Rain = 0
KAM2 081605Z 01005KT M01/M08 A3033 RMK A01 T10081077  RH  059%=      5-min Rain = 0
KAM2 081606Z 01005KT M01/M08 A3033 RMK A01 T10091079  RH  059%=      5-min Rain = 0
KAM2 081607Z 01004KT M01/M08 A3033 RMK A01 T10071076  RH  060%=      5-min Rain = 0
KAM2 081608Z 00004KT M01/M08 A3033 RMK A01 T10061077  RH  059%=      5-min Rain = 0
KAM2 081609Z 01004KT M01/M08 A3033 RMK A01 T10061077  RH  059%=      5-min Rain = 0
KAM2 081610Z 01004KT M01/M08 A3033 RMK A01 T10051078  RH  058%=      5-min Rain = 0
KAM2 081611Z 02005KT M01/M08 A3033 RMK A01 T10061081  RH  057%=      5-min Rain = 0
KAM2 081612Z 02004KT M01/M08 A3033 RMK A01 T10061080  RH  058%=      5-min Rain = 0
KAM2 081613Z 01005KT M01/M08 A3033 RMK A01 T10061078  RH  058%=      5-min Rain = 0
KAM2 081614Z 01003KT M01/M08 A3033 RMK A01 T10051080  RH  057%=      5-min Rain = 0
KAM2 081615Z 01005KT M01/M08 A3033 RMK A01 T10051080  RH  057%=      5-min Rain = 0
KAM2 081616Z 02004KT M00/M08 A3033 RMK A01 T10041079  RH  057%=      5-min Rain = 0
KAM2 081617Z 03005KT M00/M08 A3033 RMK A01 T10021078  RH  057%=      5-min Rain = 0
KAM2 081618Z 01005KT M00/M08 A3033 RMK A01 T10011078  RH  056%=      5-min Rain = 0
KAM2 081619Z 02005KT 00/08 A3033 RMK A01 T00-00-77  RH  056%=      5-min Rain = 0
KAM2 081620Z 02004KT 00/08 A3033 RMK A01 T00000-78  RH  056%=      5-min Rain = 0
KAM2 081621Z 01004KT 00/08 A3033 RMK A01 T00000-77  RH  056%=      5-min Rain = 0
KAM2 081622Z 02003KT 00/08 A3033 RMK A01 T00-00-77  RH  056%=      5-min Rain = 0
KAM2 081623Z 01003KT 00/08 A3033 RMK A01 T00-00-77  RH  056%=      5-min Rain = 0
KAM2 081624Z 01005KT 00/08 A3033 RMK A01 T00000-77  RH  056%=      5-min Rain = 0
KAM2 081625Z 01005KT 00/08 A3033 RMK A01 T00000-78  RH  055%=      5-min Rain = 0
KAM2 081626Z 05005KT 00/08 A3033 RMK A01 T00000-80  RH  055%=      5-min Rain = 0
KAM2 081627Z 04004KT 00/08 A3033 RMK A01 T00000-82  RH  054%=      5-min Rain = 0
KAM2 081628Z 02004KT 00/M08 A3033 RMK A01 T00011081  RH  054%=      5-min Rain = 0
KAM2 081629Z 03006KT 00/M08 A3033 RMK A01 T00011081  RH  054%=      5-min Rain = 0
KAM2 081630Z 03005KT 00/08 A3033 RMK A01 T00-00-82  RH  054%=      5-min Rain = 0
KAM2 081631Z 04005KT M00/M08 A3033 RMK A01 T10011083  RH  054%=      5-min Rain = 0
KAM2 081632Z 05005KT M00/M08 A3033 RMK A01 T10011084  RH  053%=      5-min Rain = 0
KAM2 081633Z 04005KT M00/M08 A3033 RMK A01 T10021084  RH  054%=      5-min Rain = 0
KAM2 081634Z 04004KT M00/M08 A3033 RMK A01 T10011083  RH  054%=      5-min Rain = 0
KAM2 081635Z 05006KT 00/08 A3033 RMK A01 T00000-83  RH  053%=      5-min Rain = 0
KAM2 081636Z 04005KT 00/M08 A3033 RMK A01 T00021081  RH  054%=      5-min Rain = 0
KAM2 081637Z 03004KT 00/M08 A3033 RMK A01 T00031081  RH  053%=      5-min Rain = 0
KAM2 081638Z 05005KT 00/M08 A3033 RMK A01 T00021081  RH  054%=      5-min Rain = 0
KAM2 081639Z 03003KT 00/M08 A3033 RMK A01 T00021082  RH  053%=      5-min Rain = 0
KAM2 081640Z 06005KT 00/M08 A3033 RMK A01 T00021083  RH  053%=      5-min Rain = 0
KAM2 081641Z 06005KT 00/M08 A3033 RMK A01 T00021083  RH  053%=      5-min Rain = 0
KAM2 081642Z 05004KT 00/M08 A3033 RMK A01 T00031081  RH  053%=      5-min Rain = 0
KAM2 081643Z 06004KT 00/M08 A3032 RMK A01 T00031083  RH  052%=      5-min Rain = 0
KAM2 081644Z 06005KT 00/M08 A3033 RMK A01 T00031084  RH  052%=      5-min Rain = 0
KAM2 081645Z 06003KT 00/M08 A3033 RMK A01 T00021084  RH  052%=      5-min Rain = 0
KAM2 081646Z 04003KT 00/M08 A3033 RMK A01 T00031082  RH  053%=      5-min Rain = 0
KAM2 081647Z 02005KT 01/M08 A3033 RMK A01 T00051079  RH  053%=      5-min Rain = 0
KAM2 081648Z 02004KT 01/M08 A3033 RMK A01 T00061079  RH  053%=      5-min Rain = 0
KAM2 081649Z 00003KT 01/M08 A3033 RMK A01 T00061079  RH  053%=      5-min Rain = 0
KAM2 081650Z 02004KT 01/M08 A3033 RMK A01 T00081078  RH  053%=      5-min Rain = 0
KAM2 081651Z 03005KT 01/M08 A3033 RMK A01 T00081080  RH  052%=      5-min Rain = 0
KAM2 081652Z 04006KT 01/M08 A3033 RMK A01 T00071080  RH  052%=      5-min Rain = 0
KAM2 081653Z 05005KT 01/M08 A3033 RMK A01 T00061077  RH  054%=      5-min Rain = 0
KAM2 081654Z 00006KT 01/M08 A3033 RMK A01 T00061075  RH  054%=      5-min Rain = 0
KAM2 081655Z 01004KT 01/M08 A3033 RMK A01 T00081078  RH  053%=      5-min Rain = 0
KAM2 081656Z 05004KT 01/M08 A3033 RMK A01 T00081078  RH  053%=      5-min Rain = 0
KAM2 081657Z 05005KT 01/M08 A3033 RMK A01 T00101075  RH  053%=      5-min Rain = 0
KAM2 081658Z 03005KT 01/M08 A3033 RMK A01 T00111078  RH  052%=      5-min Rain = 0
KAM2 081659Z 02004KT 01/M08 A3033 RMK A01 T00091079  RH  052%=      5-min Rain = 0
KAM2 081700Z 02006KT 01/M08 A3033 RMK A01 T00101078  RH  052%=      5-min Rain = 0
KAM2 081701Z 01005KT 01/M08 A3033 RMK A01 T00101079  RH  052%=      5-min Rain = 0
KAM2 081702Z 02006KT 01/M08 A3033 RMK A01 T00101078  RH  052%=      5-min Rain = 0
KAM2 081703Z 01005KT 01/M08 A3033 RMK A01 T00121077  RH  052%=      5-min Rain = 0
KAM2 081704Z 00006KT 01/M08 A3033 RMK A01 T00121076  RH  052%=      5-min Rain = 0
KAM2 081705Z 02005KT 01/M08 A3033 RMK A01 T00131076  RH  051%=      5-min Rain = 0
KAM2 081706Z 00004KT 01/M08 A3033 RMK A01 T00121078  RH  051%=      5-min Rain = 0
KAM2 081707Z 01005KT 01/M07 A3033 RMK A01 T00121074  RH  053%=      5-min Rain = 0
KAM2 081708Z 01005KT 01/M07 A3033 RMK A01 T00131071  RH  053%=      5-min Rain = 0
KAM2 081709Z 03005KT 02/M07 A3033 RMK A01 T00151069  RH  054%=      5-min Rain = 0
KAM2 081710Z 06005KT 02/M07 A3033 RMK A01 T00161070  RH  053%=      5-min Rain = 0
KAM2 081711Z 07005KT 02/M07 A3032 RMK A01 T00161071  RH  052%=      5-min Rain = 0
KAM2 081712Z 07004KT 02/M07 A3032 RMK A01 T00161073  RH  052%=      5-min Rain = 0
KAM2 081713Z 07004KT 02/M07 A3032 RMK A01 T00161072  RH  052%=      5-min Rain = 0
KAM2 081714Z 08005KT 02/M07 A3032 RMK A01 T00171071  RH  052%=      5-min Rain = 0
KAM2 081715Z 07006KT 02/M07 A3032 RMK A01 T00161072  RH  052%=      5-min Rain = 0
KAM2 081716Z 08006KT 02/M07 A3032 RMK A01 T00161073  RH  052%=      5-min Rain = 0
KAM2 081717Z 07004KT 02/M07 A3032 RMK A01 T00161071  RH  053%=      5-min Rain = 0
KAM2 081718Z 06003KT 02/M07 A3032 RMK A01 T00171070  RH  053%=      5-min Rain = 0
KAM2 081719Z 06003KT 02/M07 A3032 RMK A01 T00191066  RH  053%=      5-min Rain = 0
KAM2 081720Z 04005KT 02/M06 A3032 RMK A01 T00211064  RH  053%=      5-min Rain = 0
KAM2 081721Z 06005KT 02/M07 A3032 RMK A01 T00211066  RH  052%=      5-min Rain = 0
KAM2 081722Z 06005KT 02/M07 A3032 RMK A01 T00181071  RH  052%=      5-min Rain = 0
KAM2 081723Z 06002KT 01/M07 A3032 RMK A01 T00141073  RH  052%=      5-min Rain = 0
KAM2 081724Z 04002KT 01/M07 A3032 RMK A01 T00121074  RH  053%=      5-min Rain = 0
KAM2 081725Z 04004KT 01/M07 A3032 RMK A01 T00101073  RH  054%=      5-min Rain = 0
KAM2 081726Z 04005KT 01/M07 A3032 RMK A01 T00111071  RH  054%=      5-min Rain = 0
KAM2 081727Z 04004KT 01/M07 A3032 RMK A01 T00111069  RH  055%=      5-min Rain = 0
KAM2 081728Z 03003KT 01/M07 A3032 RMK A01 T00111071  RH  054%=      5-min Rain = 0
KAM2 081729Z 01003KT 01/M07 A3032 RMK A01 T00111072  RH  054%=      5-min Rain = 0
KAM2 081730Z 02002KT 01/M07 A3032 RMK A01 T00101073  RH  054%=      5-min Rain = 0
KAM2 081731Z 36002KT 01/M07 A3032 RMK A01 T00091072  RH  054%=      5-min Rain = 0
KAM2 081732Z 01002KT 01/M07 A3032 RMK A01 T00091073  RH  054%=      5-min Rain = 0
KAM2 081733Z 06004KT 01/M07 A3031 RMK A01 T00111071  RH  054%=      5-min Rain = 0
KAM2 081734Z 03004KT 01/M07 A3031 RMK A01 T00121069  RH  055%=      5-min Rain = 0
KAM2 081735Z 06005KT 01/M07 A3031 RMK A01 T00141068  RH  055%=      5-min Rain = 0
KAM2 081736Z 06004KT 02/M07 A3031 RMK A01 T00151068  RH  054%=      5-min Rain = 0
KAM2 081737Z 04004KT 02/M07 A3031 RMK A01 T00151070  RH  053%=      5-min Rain = 0
KAM2 081738Z 06003KT 01/M07 A3031 RMK A01 T00141071  RH  053%=      5-min Rain = 0
KAM2 081739Z 09003KT 01/M07 A3031 RMK A01 T00131072  RH  053%=      5-min Rain = 0
KAM2 081740Z 06004KT 01/M07 A3031 RMK A01 T00131072  RH  053%=      5-min Rain = 0
KAM2 081741Z 05004KT 02/M07 A3031 RMK A01 T00151069  RH  054%=      5-min Rain = 0
KAM2 081742Z 07002KT 01/M07 A3031 RMK A01 T00141070  RH  054%=      5-min Rain = 0
KAM2 081743Z 05002KT 02/M07 A3031 RMK A01 T00151067  RH  054%=      5-min Rain = 0
KAM2 081744Z 03001KT 02/M07 A3031 RMK A01 T00161068  RH  054%=      5-min Rain = 0
KAM2 081745Z 04003KT 02/M07 A3031 RMK A01 T00161068  RH  053%=      5-min Rain = 0
KAM2 081746Z 04002KT 02/M07 A3031 RMK A01 T00171070  RH  052%=      5-min Rain = 0
KAM2 081747Z 02005KT 02/M07 A3031 RMK A01 T00181071  RH  052%=      5-min Rain = 0
KAM2 081748Z 02005KT 02/M07 A3031 RMK A01 T00181071  RH  051%=      5-min Rain = 0
KAM2 081749Z 03005KT 02/M07 A3031 RMK A01 T00171074  RH  051%=      5-min Rain = 0
KAM2 081750Z 04004KT 02/M07 A3031 RMK A01 T00151074  RH  052%=      5-min Rain = 0
KAM2 081751Z 03002KT 02/M07 A3031 RMK A01 T00161073  RH  052%=      5-min Rain = 0
KAM2 081752Z 04003KT 02/M07 A3031 RMK A01 T00151074  RH  051%=      5-min Rain = 0
KAM2 081753Z 05003KT 02/M07 A3031 RMK A01 T00151074  RH  052%=      5-min Rain = 0
KAM2 081754Z 01005KT 02/M07 A3031 RMK A01 T00161073  RH  052%=      5-min Rain = 0
KAM2 081755Z 02005KT 02/M07 A3031 RMK A01 T00191070  RH  052%=      5-min Rain = 0
KAM2 081756Z 35004KT 02/M07 A3031 RMK A01 T00201071  RH  051%=      5-min Rain = 0
KAM2 081757Z 35002KT 02/M07 A3031 RMK A01 T00191073  RH  051%=      5-min Rain = 0
KAM2 081758Z 34003KT 02/M07 A3031 RMK A01 T00191070  RH  052%=      5-min Rain = 0
KAM2 081759Z 34004KT 02/M07 A3031 RMK A01 T00221068  RH  051%=      5-min Rain = 0
KAM2 081800Z 33003KT 02/M07 A3031 RMK A01 T00231071  RH  050%=      5-min Rain = 0
KAM2 081801Z 33003KT 02/M07 A3031 RMK A01 T00211074  RH  050%=      5-min Rain = 0
KAM2 081802Z 33003KT 02/M07 A3031 RMK A01 T00211073  RH  050%=      5-min Rain = 0
KAM2 081803Z 31001KT 02/M08 A3031 RMK A01 T00191075  RH  050%=      5-min Rain = 0
KAM2 081804Z 35004KT 02/M07 A3031 RMK A01 T00201073  RH  050%=      5-min Rain = 0
KAM2 081805Z 35006KT 02/M07 A3031 RMK A01 T00241070  RH  050%=      5-min Rain = 0
KAM2 081806Z 34004KT 02/M07 A3031 RMK A01 T00241072  RH  049%=      5-min Rain = 0
KAM2 081807Z 35004KT 02/M07 A303 RMK A01 T00231073  RH  049%=      5-min Rain = 0
KAM2 081808Z 34003KT 02/M08 A303 RMK A01 T00211076  RH  049%=      5-min Rain = 0
KAM2 081809Z 35004KT 02/M08 A303 RMK A01 T00201076  RH  049%=      5-min Rain = 0
KAM2 081810Z 01003KT 02/M07 A303 RMK A01 T00201073  RH  050%=      5-min Rain = 0
KAM2 081811Z 01002KT 02/M07 A303 RMK A01 T00211071  RH  050%=      5-min Rain = 0
KAM2 081812Z 30001KT 03/M07 A303 RMK A01 T00251067  RH  051%=      5-min Rain = 0
KAM2 081813Z 04002KT 03/M07 A303 RMK A01 T00271069  RH  049%=      5-min Rain = 0
KAM2 081814Z 07003KT 03/M07 A303 RMK A01 T00261071  RH  049%=      5-min Rain = 0
KAM2 081815Z 06002KT 03/M07 A303 RMK A01 T00251071  RH  049%=      5-min Rain = 0
KAM2 081816Z 01001G6KT 02/M07 A303 RMK A01 T00231072  RH  049%=      5-min Rain = 0
KAM2 081817Z 01005KT 02/M07 A303 RMK A01 T00231071  RH  050%=      5-min Rain = 0
KAM2 081818Z 36005KT 03/M07 A303 RMK A01 T00251070  RH  050%=      5-min Rain = 0
KAM2 081819Z 34003KT 03/M07 A303 RMK A01 T00251073  RH  049%=      5-min Rain = 0
KAM2 081820Z 29001KT 02/M07 A303 RMK A01 T00231074  RH  048%=      5-min Rain = 0
KAM2 081821Z 26001KT 02/M08 A303 RMK A01 T00221075  RH  049%=      5-min Rain = 0
KAM2 081822Z 33003KT 02/M07 A303 RMK A01 T00221074  RH  049%=      5-min Rain = 0
KAM2 081823Z 01004KT 02/M07 A303 RMK A01 T00231071  RH  050%=      5-min Rain = 0
KAM2 081824Z 02005KT 03/M07 A303 RMK A01 T00261069  RH  050%=      5-min Rain = 0
KAM2 081825Z 03005KT 03/M07 A303 RMK A01 T00271068  RH  049%=      5-min Rain = 0
KAM2 081826Z 02004KT 03/M07 A303 RMK A01 T00271069  RH  049%=      5-min Rain = 0
KAM2 081827Z 03005KT 03/M07 A303 RMK A01 T00271070  RH  049%=      5-min Rain = 0
KAM2 081828Z 04005KT 03/M07 A303 RMK A01 T00281068  RH  049%=      5-min Rain = 0
KAM2 081829Z 02006KT 03/M07 A303 RMK A01 T00311065  RH  049%=      5-min Rain = 0
KAM2 081830Z 00006KT 03/M07 A303 RMK A01 T00321068  RH  048%=      5-min Rain = 0
KAM2 081831Z 01006KT 03/M07 A303 RMK A01 T00301070  RH  048%=      5-min Rain = 0
KAM2 081832Z 01004KT 03/M07 A303 RMK A01 T00281072  RH  048%=      5-min Rain = 0
KAM2 081833Z 01005KT 03/M07 A303 RMK A01 T00261072  RH  048%=      5-min Rain = 0
KAM2 081834Z 02004KT 03/M07 A303 RMK A01 T00261071  RH  049%=      5-min Rain = 0
KAM2 081835Z 03003KT 03/M07 A303 RMK A01 T00251071  RH  049%=      5-min Rain = 0
KAM2 081836Z 02001KT 03/M07 A303 RMK A01 T00251070  RH  049%=      5-min Rain = 0
KAM2 081837Z 08000KT 02/M07 A3029 RMK A01 T00241071  RH  050%=      5-min Rain = 0
KAM2 081838Z 01000KT 02/M07 A3029 RMK A01 T00241070  RH  050%=      5-min Rain = 0
KAM2 081839Z 35002KT 02/M07 A3029 RMK A01 T00241069  RH  050%=      5-min Rain = 0
KAM2 081840Z 35005KT 03/M07 A3029 RMK A01 T00251069  RH  050%=      5-min Rain = 0
KAM2 081841Z 34005KT 03/M07 A3029 RMK A01 T00261068  RH  050%=      5-min Rain = 0
KAM2 081842Z 34005KT 03/M07 A3029 RMK A01 T00261068  RH  050%=      5-min Rain = 0
KAM2 081843Z 34005KT 03/M07 A3029 RMK A01 T00291066  RH  050%=      5-min Rain = 0
KAM2 081844Z 01003KT 03/M07 A3029 RMK A01 T00291067  RH  049%=      5-min Rain = 0
KAM2 081845Z 03004KT 03/M07 A3029 RMK A01 T00291068  RH  049%=      5-min Rain = 0
KAM2 081846Z 36004KT 03/M07 A3029 RMK A01 T00291067  RH  049%=      5-min Rain = 0
KAM2 081847Z 01003KT 03/M06 A3029 RMK A01 T00321064  RH  049%=      5-min Rain = 0
KAM2 081848Z 04004KT 03/M07 A3029 RMK A01 T00321067  RH  048%=      5-min Rain = 0
KAM2 081849Z 35002KT 03/M07 A3029 RMK A01 T00321066  RH  049%=      5-min Rain = 0
KAM2 081850Z 05002KT 04/M07 A3029 RMK A01 T00351065  RH  048%=      5-min Rain = 0
KAM2 081851Z 07002KT 04/M07 A3029 RMK A01 T00361067  RH  047%=      5-min Rain = 0
KAM2 081852Z 08001KT 04/M07 A3029 RMK A01 T00351068  RH  047%=      5-min Rain = 0
KAM2 081853Z 10001KT 03/M07 A3029 RMK A01 T00341069  RH  047%=      5-min Rain = 0
KAM2 081854Z 34001KT 03/M07 A3029 RMK A01 T00341069  RH  047%=      5-min Rain = 0
KAM2 081855Z 33004KT 04/M07 A3029 RMK A01 T00351067  RH  047%=      5-min Rain = 0
KAM2 081856Z 32005KT 04/M07 A3029 RMK A01 T00351068  RH  047%=      5-min Rain = 0
KAM2 081857Z 36004KT 03/M07 A3029 RMK A01 T00341067  RH  048%=      5-min Rain = 0
KAM2 081858Z 02006KT 04/M07 A3029 RMK A01 T00351066  RH  048%=      5-min Rain = 0
KAM2 081859Z 02004KT 03/M07 A3029 RMK A01 T00331067  RH  048%=      5-min Rain = 0
KAM2 081900Z 01003KT 03/M07 A3029 RMK A01 T00331066  RH  048%=      5-min Rain = 0
KAM2 081901Z 05005KT 03/M07 A3029 RMK A01 T00331066  RH  049%=      5-min Rain = 0
KAM2 081902Z 04004KT 03/M07 A3028 RMK A01 T00331065  RH  049%=      5-min Rain = 0
KAM2 081903Z 04003KT 03/M07 A3028 RMK A01 T00311067  RH  048%=      5-min Rain = 0
KAM2 081904Z 07001KT 03/M07 A3028 RMK A01 T00301067  RH  049%=      5-min Rain = 0
KAM2 081905Z 27001KT 03/M07 A3028 RMK A01 T00301066  RH  049%=      5-min Rain = 0
KAM2 081906Z 28002KT 03/M07 A3028 RMK A01 T00311066  RH  049%=      5-min Rain = 0
KAM2 081907Z 28000KT 03/M07 A3028 RMK A01 T00311066  RH  049%=      5-min Rain = 0
KAM2 081908Z 32000KT 03/M07 A3028 RMK A01 T00311066  RH  049%=      5-min Rain = 0
KAM2 081909Z 35003KT 03/M07 A3028 RMK A01 T00321065  RH  049%=      5-min Rain = 0
KAM2 081910Z 36005KT 03/M07 A3028 RMK A01 T00331065  RH  049%=      5-min Rain = 0
KAM2 081911Z 33003KT 03/M07 A3028 RMK A01 T00331065  RH  049%=      5-min Rain = 0
KAM2 081912Z 05003KT 03/M06 A3028 RMK A01 T00341064  RH  049%=      5-min Rain = 0
KAM2 081913Z 02003KT 03/M07 A3028 RMK A01 T00341065  RH  048%=      5-min Rain = 0
KAM2 081914Z 36003KT 03/M07 A3028 RMK A01 T00321066  RH  048%=      5-min Rain = 0
KAM2 081915Z 03005KT 03/M07 A3028 RMK A01 T00311066  RH  049%=      5-min Rain = 0
KAM2 081916Z 04005KT 03/M06 A3028 RMK A01 T00331063  RH  049%=      5-min Rain = 0
KAM2 081917Z 05004KT 04/M06 A3028 RMK A01 T00351063  RH  049%=      5-min Rain = 0
KAM2 081918Z 03004KT 03/M06 A3027 RMK A01 T00341064  RH  049%=      5-min Rain = 0
KAM2 081919Z 35005KT 03/M06 A3027 RMK A01 T00341062  RH  049%=      5-min Rain = 0
KAM2 081920Z 33005KT 04/M06 A3027 RMK A01 T00351062  RH  049%=      5-min Rain = 0
KAM2 081921Z 33005KT 04/M06 A3027 RMK A01 T00351062  RH  049%=      5-min Rain = 0
KAM2 081922Z 33005KT 04/M06 A3027 RMK A01 T00381059  RH  049%=      5-min Rain = 0
KAM2 081923Z 31004KT 04/M06 A3027 RMK A01 T00381062  RH  048%=      5-min Rain = 0
KAM2 081924Z 33005KT 04/M06 A3027 RMK A01 T00361064  RH  048%=      5-min Rain = 0
KAM2 081925Z 31005KT 04/M06 A3027 RMK A01 T00351062  RH  049%=      5-min Rain = 0
KAM2 081926Z 29004KT 03/M06 A3027 RMK A01 T00341062  RH  049%=      5-min Rain = 0
KAM2 081927Z 29005KT 04/M06 A3027 RMK A01 T00361061  RH  049%=      5-min Rain = 0
KAM2 081928Z 26003KT 04/M06 A3027 RMK A01 T00351062  RH  049%=      5-min Rain = 0
KAM2 081929Z 25003KT 04/M06 A3027 RMK A01 T00371060  RH  049%=      5-min Rain = 0
KAM2 081930Z 25003KT 04/M06 A3027 RMK A01 T00391060  RH  049%=      5-min Rain = 0
KAM2 081931Z 25002KT 04/M06 A3027 RMK A01 T00401060  RH  048%=      5-min Rain = 0
KAM2 081932Z 10001KT 04/M06 A3027 RMK A01 T00401062  RH  048%=      5-min Rain = 0
KAM2 081933Z 03003KT 04/M06 A3027 RMK A01 T00391061  RH  048%=      5-min Rain = 0
KAM2 081934Z 02005KT 04/M06 A3027 RMK A01 T00391061  RH  048%=      5-min Rain = 0
KAM2 081935Z 01007KT 04/M06 A3026 RMK A01 T00391061  RH  048%=      5-min Rain = 0
KAM2 081936Z 03005KT 04/M06 A3026 RMK A01 T00391061  RH  048%=      5-min Rain = 0
KAM2 081937Z 05004KT 04/M06 A3026 RMK A01 T00371062  RH  048%=      5-min Rain = 0
KAM2 081938Z 05005KT 04/M06 A3026 RMK A01 T00361062  RH  049%=      5-min Rain = 0
KAM2 081939Z 02006KT 04/M06 A3026 RMK A01 T00371060  RH  049%=      5-min Rain = 0
KAM2 081940Z 03005KT 04/M06 A3026 RMK A01 T00381059  RH  049%=      5-min Rain = 0
KAM2 081941Z 04004KT 04/M06 A3026 RMK A01 T00391060  RH  049%=      5-min Rain = 0
KAM2 081942Z 05003KT 04/M06 A3026 RMK A01 T00371061  RH  049%=      5-min Rain = 0
KAM2 081943Z 03004KT 04/M06 A3026 RMK A01 T00371060  RH  049%=      5-min Rain = 0
KAM2 081944Z 04003KT 04/M06 A3026 RMK A01 T00371059  RH  049%=      5-min Rain = 0
KAM2 081945Z 05002KT 04/M06 A3026 RMK A01 T00381059  RH  049%=      5-min Rain = 0
KAM2 081946Z 35004KT 04/M06 A3026 RMK A01 T00401058  RH  049%=      5-min Rain = 0
KAM2 081947Z 02003KT 04/M06 A3026 RMK A01 T00401060  RH  048%=      5-min Rain = 0
KAM2 081948Z 06000KT 04/M06 A3026 RMK A01 T00381061  RH  048%=      5-min Rain = 0
KAM2 081949Z 16001KT 04/M06 A3026 RMK A01 T00381061  RH  048%=      5-min Rain = 0
KAM2 081950Z 26002KT 04/M06 A3026 RMK A01 T00391060  RH  048%=      5-min Rain = 0
KAM2 081951Z 25002KT 04/M06 A3025 RMK A01 T00401060  RH  048%=      5-min Rain = 0
KAM2 081952Z 29002KT 04/M06 A3025 RMK A01 T00401060  RH  048%=      5-min Rain = 0
KAM2 081953Z 02003KT 04/M06 A3025 RMK A01 T00411060  RH  048%=      5-min Rain = 0
KAM2 081954Z 02004KT 04/M06 A3025 RMK A01 T00411059  RH  048%=      5-min Rain = 0
KAM2 081955Z 03006KT 04/M06 A3025 RMK A01 T00421058  RH  048%=      5-min Rain = 0
KAM2 081956Z 02005KT 04/M06 A3025 RMK A01 T00421058  RH  048%=      5-min Rain = 0
KAM2 081957Z 02003KT 04/M06 A3025 RMK A01 T00401061  RH  048%=      5-min Rain = 0
KAM2 081958Z 07003KT 04/M06 A3025 RMK A01 T00391059  RH  049%=      5-min Rain = 0
KAM2 081959Z 09003KT 04/M06 A3025 RMK A01 T00391060  RH  049%=      5-min Rain = 0
KAM2 082000Z 17001KT 04/M06 A3025 RMK A01 T00371061  RH  049%=      5-min Rain = 0
KAM2 082001Z 13001KT 04/M06 A3025 RMK A01 T00371059  RH  050%=      5-min Rain = 0
KAM2 082002Z 04002KT 04/M06 A3025 RMK A01 T00411056  RH  050%=      5-min Rain = 0
KAM2 082003Z 36006KT 04/M06 A3025 RMK A01 T00441055  RH  049%=      5-min Rain = 0
KAM2 082004Z 35004KT 04/M06 A3025 RMK A01 T00441057  RH  048%=      5-min Rain = 0
KAM2 082005Z 35004KT 04/M06 A3025 RMK A01 T00431058  RH  048%=      5-min Rain = 0
KAM2 082006Z 32005KT 04/M06 A3025 RMK A01 T00441057  RH  048%=      5-min Rain = 0
KAM2 082007Z 32003KT 04/M06 A3025 RMK A01 T00441057  RH  048%=      5-min Rain = 0
KAM2 082008Z 33000KT 04/M06 A3025 RMK A01 T00421060  RH  047%=      5-min Rain = 0
KAM2 082009Z 27001KT 04/M06 A3025 RMK A01 T00421059  RH  048%=      5-min Rain = 0
KAM2 082010Z 25001KT 04/M06 A3024 RMK A01 T00441057  RH  048%=      5-min Rain = 0
KAM2 082011Z 27000KT 05/M06 A3024 RMK A01 T00461057  RH  047%=      5-min Rain = 0
KAM2 082012Z 04002KT 05/M06 A3024 RMK A01 T00461057  RH  047%=      5-min Rain = 0
KAM2 082013Z 03003KT 05/M06 A3024 RMK A01 T00471058  RH  047%=      5-min Rain = 0
KAM2 082014Z 03004KT 05/M06 A3024 RMK A01 T00451059  RH  047%=      5-min Rain = 0
KAM2 082015Z 04004KT 04/M06 A3024 RMK A01 T00431060  RH  047%=      5-min Rain = 0
KAM2 082016Z 34002KT 04/M06 A3024 RMK A01 T00411059  RH  048%=      5-min Rain = 0
KAM2 082017Z 29001KT 04/M06 A3024 RMK A01 T00411059  RH  048%=      5-min Rain = 0
KAM2 082018Z 08003KT 04/M06 A3024 RMK A01 T00421057  RH  048%=      5-min Rain = 0
KAM2 082019Z 07003KT 04/M06 A3024 RMK A01 T00431058  RH  048%=      5-min Rain = 0
KAM2 082020Z 07001KT 04/M06 A3024 RMK A01 T00431059  RH  048%=      5-min Rain = 0
KAM2 082021Z 14001KT 04/M06 A3024 RMK A01 T00431059  RH  047%=      5-min Rain = 0
KAM2 082022Z 09001KT 04/M06 A3024 RMK A01 T00421060  RH  047%=      5-min Rain = 0
KAM2 082023Z 06003KT 04/M06 A3024 RMK A01 T00411060  RH  048%=      5-min Rain = 0
KAM2 082024Z 03006KT 04/M06 A3024 RMK A01 T00431057  RH  048%=      5-min Rain = 0
KAM2 082025Z 01005KT 05/M06 A3024 RMK A01 T00451056  RH  048%=      5-min Rain = 0
KAM2 082026Z 02006KT 05/M06 A3024 RMK A01 T00461057  RH  047%=      5-min Rain = 0
KAM2 082027Z 03004KT 05/M06 A3024 RMK A01 T00471056  RH  047%=      5-min Rain = 0
KAM2 082028Z 06003KT 05/M06 A3024 RMK A01 T00491057  RH  046%=      5-min Rain = 0
KAM2 082029Z 06002KT 05/M06 A3024 RMK A01 T00471059  RH  046%=      5-min Rain = 0
KAM2 082030Z 04005KT 05/M06 A3024 RMK A01 T00451059  RH  047%=      5-min Rain = 0
KAM2 082031Z 02006KT 05/M06 A3024 RMK A01 T00451058  RH  047%=      5-min Rain = 0
KAM2 082032Z 01005KT 05/M05 A3024 RMK A01 T00491054  RH  047%=      5-min Rain = 0
KAM2 082033Z 01004KT 05/M06 A3024 RMK A01 T00501056  RH  046%=      5-min Rain = 0
KAM2 082034Z 02004KT 05/M06 A3024 RMK A01 T00461060  RH  046%=      5-min Rain = 0
KAM2 082035Z 01003KT 04/M06 A3024 RMK A01 T00441061  RH  047%=      5-min Rain = 0
KAM2 082036Z 01003KT 04/M06 A3024 RMK A01 T00421061  RH  047%=      5-min Rain = 0
KAM2 082037Z 35003KT 04/M06 A3024 RMK A01 T00421059  RH  048%=      5-min Rain = 0
KAM2 082038Z 00002KT 04/M06 A3024 RMK A01 T00431059  RH  047%=      5-min Rain = 0
KAM2 082039Z 35000KT 04/M06 A3024 RMK A01 T00421060  RH  047%=      5-min Rain = 0
KAM2 082040Z 02001KT 04/M06 A3024 RMK A01 T00421060  RH  048%=      5-min Rain = 0
KAM2 082041Z 04000KT 04/M06 A3024 RMK A01 T00431059  RH  047%=      5-min Rain = 0
KAM2 082042Z 02005KT 05/M06 A3024 RMK A01 T00451058  RH  047%=      5-min Rain = 0
KAM2 082043Z 01004KT 04/M06 A3024 RMK A01 T00441060  RH  047%=      5-min Rain = 0
KAM2 082044Z 01002KT 04/M06 A3024 RMK A01 T00431060  RH  047%=      5-min Rain = 0
KAM2 082045Z 02004KT 04/M06 A3024 RMK A01 T00431059  RH  048%=      5-min Rain = 0
KAM2 082046Z 03003KT 04/M06 A3024 RMK A01 T00441058  RH  048%=      5-min Rain = 0
KAM2 082047Z 04003KT 04/M06 A3024 RMK A01 T00441058  RH  047%=      5-min Rain = 0
KAM2 082048Z 03002KT 04/M06 A3024 RMK A01 T00441059  RH  047%=      5-min Rain = 0
KAM2 082049Z 35001KT 04/M06 A3024 RMK A01 T00431059  RH  047%=      5-min Rain = 0
KAM2 082050Z 05002KT 04/M06 A3024 RMK A01 T00431059  RH  047%=      5-min Rain = 0
KAM2 082051Z 05002KT 04/M06 A3024 RMK A01 T00441058  RH  048%=      5-min Rain = 0
KAM2 082052Z 05003KT 05/M06 A3024 RMK A01 T00471055  RH  047%=      5-min Rain = 0
KAM2 082053Z 04002KT 05/M06 A3024 RMK A01 T00491057  RH  046%=      5-min Rain = 0
KAM2 082054Z 34001KT 05/M06 A3023 RMK A01 T00471059  RH  046%=      5-min Rain = 0
KAM2 082055Z 27000KT 05/M06 A3023 RMK A01 T00461059  RH  046%=      5-min Rain = 0
KAM2 082056Z 04000KT 05/M06 A3023 RMK A01 T00461059  RH  046%=      5-min Rain = 0
KAM2 082057Z 04001KT 05/M06 A3023 RMK A01 T00461059  RH  046%=      5-min Rain = 0
KAM2 082058Z 00000KT 05/M06 A3023 RMK A01 T00461058  RH  047%=      5-min Rain = 0
KAM2 082059Z 00000KT 05/M06 A3023 RMK A01 T00471058  RH  046%=      5-min Rain = 0
KAM2 082100Z 04000KT 05/M06 A3023 RMK A01 T00471058  RH  046%=      5-min Rain = 0
KAM2 082101Z 02002KT 05/M06 A3023 RMK A01 T00481058  RH  046%=      5-min Rain = 0
KAM2 082102Z 00002KT 05/M06 A3023 RMK A01 T00491057  RH  046%=      5-min Rain = 0
KAM2 082103Z 04003KT 05/M06 A3023 RMK A01 T00501058  RH  046%=      5-min Rain = 0
KAM2 082104Z 04002KT 05/M06 A3024 RMK A01 T00471060  RH  046%=      5-min Rain = 0
KAM2 082105Z 03000KT 05/M06 A3024 RMK A01 T00451060  RH  046%=      5-min Rain = 0
KAM2 082106Z 31000KT 05/M06 A3023 RMK A01 T00451059  RH  047%=      5-min Rain = 0
KAM2 082107Z 31000KT 05/M06 A3023 RMK A01 T00451059  RH  047%=      5-min Rain = 0
KAM2 082108Z 33002KT 05/M06 A3023 RMK A01 T00461057  RH  047%=      5-min Rain = 0
KAM2 082109Z 32004KT 05/M06 A3023 RMK A01 T00491056  RH  047%=      5-min Rain = 0
KAM2 082110Z 31003KT 05/M06 A3023 RMK A01 T00501056  RH  046%=      5-min Rain = 0
KAM2 082111Z 31003KT 05/M06 A3023 RMK A01 T00501057  RH  046%=      5-min Rain = 0
KAM2 082112Z 30003KT 05/M06 A3023 RMK A01 T00501058  RH  046%=      5-min Rain = 0
KAM2 082113Z 29002KT 05/M06 A3023 RMK A01 T00501058  RH  046%=      5-min Rain = 0
KAM2 082114Z 28002KT 05/M06 A3023 RMK A01 T00501057  RH  046%=      5-min Rain = 0
KAM2 082115Z 33001KT 05/M06 A3023 RMK A01 T00511057  RH  046%=      5-min Rain = 0
KAM2 082116Z 03003KT 05/M06 A3023 RMK A01 T00521057  RH  045%=      5-min Rain = 0
KAM2 082117Z 06001KT 05/M06 A3023 RMK A01 T00511058  RH  045%=      5-min Rain = 0
KAM2 082118Z 08001KT 05/M06 A3023 RMK A01 T00501058  RH  046%=      5-min Rain = 0
KAM2 082119Z 22000KT 05/M06 A3023 RMK A01 T00501058  RH  046%=      5-min Rain = 0
KAM2 082120Z 18000KT 05/M06 A3023 RMK A01 T00521056  RH  046%=      5-min Rain = 0
KAM2 082121Z 24001KT 05/M06 A3023 RMK A01 T00541056  RH  045%=      5-min Rain = 0
KAM2 082122Z 35002KT 06/M06 A3023 RMK A01 T00561056  RH  044%=      5-min Rain = 0
KAM2 082123Z 35005KT 06/M06 A3023 RMK A01 T00561057  RH  044%=      5-min Rain = 0
KAM2 082124Z 34005KT 06/M06 A3023 RMK A01 T00551057  RH  044%=      5-min Rain = 0
KAM2 082125Z 34004KT 05/M06 A3023 RMK A01 T00541057  RH  044%=      5-min Rain = 0
KAM2 082126Z 30003KT 05/M06 A3023 RMK A01 T00541058  RH  044%=      5-min Rain = 0
KAM2 082127Z 01005KT 05/M06 A3023 RMK A01 T00541056  RH  045%=      5-min Rain = 0
KAM2 082128Z 02007KT 06/M06 A3023 RMK A01 T00551056  RH  045%=      5-min Rain = 0
KAM2 082129Z 01006KT 06/M06 A3023 RMK A01 T00551056  RH  045%=      5-min Rain = 0
KAM2 082130Z 00004KT 05/M06 A3023 RMK A01 T00531058  RH  045%=      5-min Rain = 0
KAM2 082131Z 36003KT 05/M06 A3023 RMK A01 T00521058  RH  045%=      5-min Rain = 0
KAM2 082132Z 35003KT 05/M06 A3023 RMK A01 T00511058  RH  045%=      5-min Rain = 0
KAM2 082133Z 35001KT 05/M06 A3023 RMK A01 T00501059  RH  045%=      5-min Rain = 0
KAM2 082134Z 33000KT 05/M06 A3022 RMK A01 T00491059  RH  045%=      5-min Rain = 0
KAM2 082135Z 00001KT 05/M06 A3023 RMK A01 T00501058  RH  045%=      5-min Rain = 0
KAM2 082136Z 02003KT 05/M06 A3023 RMK A01 T00521057  RH  045%=      5-min Rain = 0
KAM2 082137Z 04004KT 05/M06 A3022 RMK A01 T00541056  RH  045%=      5-min Rain = 0
KAM2 082138Z 02005KT 05/M06 A3022 RMK A01 T00531057  RH  045%=      5-min Rain = 0
KAM2 082139Z 04003KT 05/M06 A3022 RMK A01 T00531057  RH  045%=      5-min Rain = 0
KAM2 082140Z 04002KT 05/M06 A3022 RMK A01 T00531057  RH  045%=      5-min Rain = 0
KAM2 082141Z 35003KT 05/M06 A3022 RMK A01 T00531057  RH  045%=      5-min Rain = 0
KAM2 082142Z 35002KT 05/M06 A3022 RMK A01 T00511058  RH  045%=      5-min Rain = 0
KAM2 082143Z 34001KT 05/M06 A3022 RMK A01 T00501059  RH  045%=      5-min Rain = 0
KAM2 082144Z 31002KT 05/M06 A3023 RMK A01 T00501057  RH  046%=      5-min Rain = 0
KAM2 082145Z 31000KT 05/M06 A3023 RMK A01 T00501058  RH  046%=      5-min Rain = 0
KAM2 082146Z 07001KT 05/M06 A3022 RMK A01 T00501057  RH  046%=      5-min Rain = 0
KAM2 082147Z 08002KT 05/M06 A3022 RMK A01 T00511057  RH  046%=      5-min Rain = 0
KAM2 082148Z 08001KT 05/M06 A3022 RMK A01 T00511057  RH  046%=      5-min Rain = 0
KAM2 082149Z 00000KT 05/M06 A3022 RMK A01 T00511057  RH  046%=      5-min Rain = 0
KAM2 082150Z 07001KT 05/M06 A3022 RMK A01 T00511057  RH  046%=      5-min Rain = 0
KAM2 082151Z 04002KT 05/M06 A3022 RMK A01 T00521057  RH  046%=      5-min Rain = 0
KAM2 082152Z 36003KT 05/M06 A3022 RMK A01 T00531056  RH  045%=      5-min Rain = 0
KAM2 082153Z 00003KT 05/M06 A3022 RMK A01 T00531056  RH  045%=      5-min Rain = 0
KAM2 082154Z 01001KT 05/M06 A3022 RMK A01 T00531056  RH  045%=      5-min Rain = 0
KAM2 082155Z 06002KT 05/M06 A3022 RMK A01 T00531056  RH  045%=      5-min Rain = 0
KAM2 082156Z 07004KT 05/M06 A3022 RMK A01 T00531056  RH  045%=      5-min Rain = 0
KAM2 082157Z 08003KT 05/M06 A3022 RMK A01 T00521057  RH  045%=      5-min Rain = 0
KAM2 082158Z 09002KT 05/M06 A3022 RMK A01 T00501058  RH  045%=      5-min Rain = 0
KAM2 082159Z 06001KT 05/M06 A3022 RMK A01 T00491058  RH  046%=      5-min Rain = 0
KAM2 082200Z 06002KT 05/M06 A3022 RMK A01 T00481057  RH  046%=      5-min Rain = 0
KAM2 082201Z 04003KT 05/M06 A3022 RMK A01 T00501057  RH  046%=      5-min Rain = 0
KAM2 082202Z 03002KT 05/M06 A3022 RMK A01 T00501057  RH  046%=      5-min Rain = 0
KAM2 082203Z 08003KT 05/M06 A3022 RMK A01 T00491057  RH  046%=      5-min Rain = 0
KAM2 082204Z 08002KT 05/M06 A3022 RMK A01 T00491057  RH  046%=      5-min Rain = 0
KAM2 082205Z 03002KT 05/M06 A3022 RMK A01 T00491057  RH  046%=      5-min Rain = 0
KAM2 082206Z 05005KT 05/M06 A3022 RMK A01 T00501056  RH  046%=      5-min Rain = 0
KAM2 082207Z 06003KT 05/M06 A3022 RMK A01 T00501056  RH  046%=      5-min Rain = 0
KAM2 082208Z 04004KT 05/M06 A3022 RMK A01 T00501055  RH  046%=      5-min Rain = 0
KAM2 082209Z 04005KT 05/M06 A3022 RMK A01 T00511055  RH  046%=      5-min Rain = 0
KAM2 082210Z 03005KT 05/M06 A3022 RMK A01 T00501056  RH  046%=      5-min Rain = 0
KAM2 082211Z 05005KT 05/M06 A3022 RMK A01 T00491056  RH  047%=      5-min Rain = 0
KAM2 082212Z 04004KT 05/M06 A3022 RMK A01 T00491056  RH  047%=      5-min Rain = 0
KAM2 082213Z 03003KT 05/M06 A3022 RMK A01 T00481056  RH  047%=      5-min Rain = 0
KAM2 082214Z 03004KT 05/M06 A3022 RMK A01 T00481056  RH  047%=      5-min Rain = 0
KAM2 082215Z 04003KT 05/M06 A3022 RMK A01 T00481057  RH  047%=      5-min Rain = 0
KAM2 082216Z 04003KT 05/M06 A3022 RMK A01 T00481056  RH  047%=      5-min Rain = 0
KAM2 082217Z 03004KT 05/M06 A3022 RMK A01 T00491055  RH  047%=      5-min Rain = 0
KAM2 082218Z 02004KT 05/M06 A3022 RMK A01 T00491056  RH  046%=      5-min Rain = 0
KAM2 082219Z 04004KT 05/M06 A3022 RMK A01 T00501056  RH  046%=      5-min Rain = 0
KAM2 082220Z 03004KT 05/M06 A3022 RMK A01 T00491056  RH  046%=      5-min Rain = 0
KAM2 082221Z 01003KT 05/M06 A3022 RMK A01 T00491056  RH  047%=      5-min Rain = 0
KAM2 082222Z 35002KT 05/M06 A3022 RMK A01 T00491056  RH  047%=      5-min Rain = 0
KAM2 082223Z 34003KT 05/M06 A3022 RMK A01 T00491056  RH  047%=      5-min Rain = 0
KAM2 082224Z 32004KT 05/M06 A3023 RMK A01 T00501055  RH  046%=      5-min Rain = 0
KAM2 082225Z 34004KT 05/M06 A3023 RMK A01 T00501056  RH  046%=      5-min Rain = 0
KAM2 082226Z 33003KT 05/M06 A3023 RMK A01 T00491056  RH  046%=      5-min Rain = 0
KAM2 082227Z 00003KT 05/M06 A3023 RMK A01 T00491056  RH  047%=      5-min Rain = 0
KAM2 082228Z 01003KT 05/M06 A3023 RMK A01 T00501057  RH  046%=      5-min Rain = 0
KAM2 082229Z 01002KT 05/M06 A3023 RMK A01 T00491058  RH  046%=      5-min Rain = 0
KAM2 082230Z 04002KT 05/M06 A3023 RMK A01 T00481058  RH  046%=      5-min Rain = 0
KAM2 082231Z 07001KT 05/M06 A3023 RMK A01 T00481058  RH  046%=      5-min Rain = 0
KAM2 082232Z 06001KT 05/M06 A3023 RMK A01 T00481059  RH  046%=      5-min Rain = 0
KAM2 082233Z 04002KT 05/M06 A3023 RMK A01 T00481058  RH  046%=      5-min Rain = 0
KAM2 082234Z 00003KT 05/M06 A3023 RMK A01 T00481057  RH  046%=      5-min Rain = 0
KAM2 082235Z 02005KT 05/M06 A3023 RMK A01 T00491058  RH  046%=      5-min Rain = 0
KAM2 082236Z 02005KT 05/M06 A3023 RMK A01 T00481059  RH  046%=      5-min Rain = 0
KAM2 082237Z 03005KT 05/M06 A3023 RMK A01 T00471060  RH  046%=      5-min Rain = 0
KAM2 082238Z 03005KT 05/M06 A3023 RMK A01 T00461060  RH  046%=      5-min Rain = 0
KAM2 082239Z 02004KT 05/M06 A3023 RMK A01 T00461060  RH  046%=      5-min Rain = 0
KAM2 082240Z 03004KT 05/M06 A3023 RMK A01 T00451060  RH  046%=      5-min Rain = 0
KAM2 082241Z 03004KT 05/M06 A3023 RMK A01 T00461059  RH  047%=      5-min Rain = 0
KAM2 082242Z 03003KT 05/M06 A3023 RMK A01 T00461059  RH  046%=      5-min Rain = 0
KAM2 082243Z 04003KT 05/M06 A3023 RMK A01 T00461060  RH  046%=      5-min Rain = 0
KAM2 082244Z 04003KT 05/M06 A3023 RMK A01 T00451059  RH  047%=      5-min Rain = 0
KAM2 082245Z 03004KT 05/M06 A3023 RMK A01 T00451060  RH  047%=      5-min Rain = 0
KAM2 082246Z 04004KT 05/M06 A3023 RMK A01 T00451060  RH  046%=      5-min Rain = 0
KAM2 082247Z 05003KT 04/M06 A3023 RMK A01 T00441061  RH  046%=      5-min Rain = 0
KAM2 082248Z 05003KT 04/M06 A3023 RMK A01 T00441060  RH  046%=      5-min Rain = 0
KAM2 082249Z 05004KT 04/M06 A3023 RMK A01 T00441060  RH  047%=      5-min Rain = 0
KAM2 082250Z 04006KT 04/M06 A3023 RMK A01 T00441060  RH  047%=      5-min Rain = 0
KAM2 082251Z 04006KT 04/M06 A3023 RMK A01 T00441060  RH  047%=      5-min Rain = 0
KAM2 082252Z 04006KT 04/M06 A3023 RMK A01 T00441060  RH  047%=      5-min Rain = 0
KAM2 082253Z 04005KT 04/M06 A3023 RMK A01 T00431061  RH  047%=      5-min Rain = 0
KAM2 082254Z 05005KT 04/M06 A3023 RMK A01 T00431061  RH  047%=      5-min Rain = 0
KAM2 082255Z 04005KT 04/M06 A3023 RMK A01 T00431060  RH  047%=      5-min Rain = 0
KAM2 082256Z 04005KT 04/M06 A3023 RMK A01 T00431060  RH  047%=      5-min Rain = 0
KAM2 082257Z 04003KT 04/M06 A3024 RMK A01 T00421060  RH  047%=      5-min Rain = 0
KAM2 082258Z 03002KT 04/M06 A3024 RMK A01 T00421060  RH  047%=      5-min Rain = 0
KAM2 082259Z 04002KT 04/M06 A3024 RMK A01 T00421060  RH  047%=      5-min Rain = 0
KAM2 082300Z 04002KT 04/M06 A3024 RMK A01 T00421061  RH  047%=      5-min Rain = 0
KAM2 082301Z 02003KT 04/M06 A3024 RMK A01 T00421060  RH  047%=      5-min Rain = 0
KAM2 082302Z 02004KT 04/M06 A3024 RMK A01 T00411061  RH  047%=      5-min Rain = 0
KAM2 082303Z 03004KT 04/M06 A3024 RMK A01 T00411061  RH  047%=      5-min Rain = 0
KAM2 082304Z 02003KT 04/M06 A3024 RMK A01 T00401061  RH  048%=      5-min Rain = 0
KAM2 082305Z 01004KT 04/M06 A3024 RMK A01 T00401060  RH  048%=      5-min Rain = 0
KAM2 082306Z 02004KT 04/M06 A3024 RMK A01 T00401061  RH  048%=      5-min Rain = 0
KAM2 082307Z 02003KT 04/M06 A3024 RMK A01 T00391061  RH  048%=      5-min Rain = 0
KAM2 082308Z 03004KT 04/M06 A3024 RMK A01 T00391060  RH  049%=      5-min Rain = 0
KAM2 082309Z 02004KT 04/M06 A3024 RMK A01 T00381060  RH  049%=      5-min Rain = 0
KAM2 082310Z 02004KT 04/M06 A3024 RMK A01 T00381060  RH  049%=      5-min Rain = 0
KAM2 082311Z 01004KT 04/M06 A3024 RMK A01 T00381060  RH  049%=      5-min Rain = 0
KAM2 082312Z 01004KT 04/M06 A3024 RMK A01 T00371060  RH  049%=      5-min Rain = 0
KAM2 082313Z 02004KT 04/M06 A3024 RMK A01 T00371060  RH  049%=      5-min Rain = 0
KAM2 082314Z 02004KT 04/M06 A3024 RMK A01 T00361060  RH  050%=      5-min Rain = 0
KAM2 082315Z 02005KT 04/M06 A3024 RMK A01 T00351060  RH  050%=      5-min Rain = 0
KAM2 082316Z 03004KT 04/M06 A3024 RMK A01 T00351060  RH  050%=      5-min Rain = 0
KAM2 082317Z 02005KT 03/M06 A3024 RMK A01 T00341060  RH  050%=      5-min Rain = 0
KAM2 082318Z 03005KT 03/M06 A3024 RMK A01 T00341060  RH  050%=      5-min Rain = 0
KAM2 082319Z 03004KT 03/M06 A3024 RMK A01 T00331060  RH  051%=      5-min Rain = 0
KAM2 082320Z 04004KT 03/M06 A3024 RMK A01 T00321060  RH  051%=      5-min Rain = 0
KAM2 082321Z 04005KT 03/M06 A3024 RMK A01 T00311060  RH  051%=      5-min Rain = 0
KAM2 082322Z 05005KT 03/M06 A3024 RMK A01 T00311061  RH  051%=      5-min Rain = 0
KAM2 082323Z 05004KT 03/M06 A3024 RMK A01 T00301062  RH  051%=      5-min Rain = 0
KAM2 082324Z 06005KT 03/M06 A3024 RMK A01 T00291062  RH  051%=      5-min Rain = 0
KAM2 082325Z 05005KT 03/M06 A3024 RMK A01 T00281062  RH  051%=      5-min Rain = 0
KAM2 082326Z 05004KT 03/M06 A3024 RMK A01 T00271063  RH  051%=      5-min Rain = 0
KAM2 082327Z 05005KT 03/M06 A3024 RMK A01 T00271063  RH  052%=      5-min Rain = 0
KAM2 082328Z 05005KT 03/M06 A3024 RMK A01 T00261063  RH  052%=      5-min Rain = 0
KAM2 082329Z 04004KT 03/M06 A3024 RMK A01 T00251063  RH  052%=      5-min Rain = 0
KAM2 082330Z 05004KT 02/M06 A3024 RMK A01 T00241063  RH  053%=      5-min Rain = 0
KAM2 082331Z 05004KT 02/M06 A3024 RMK A01 T00231063  RH  053%=      5-min Rain = 0
KAM2 082332Z 05004KT 02/M06 A3024 RMK A01 T00221063  RH  053%=      5-min Rain = 0
KAM2 082333Z 05005KT 02/M06 A3024 RMK A01 T00211063  RH  054%=      5-min Rain = 0
KAM2 082334Z 05005KT 02/M06 A3024 RMK A01 T00201063  RH  054%=      5-min Rain = 0
KAM2 082335Z 05005KT 02/M06 A3024 RMK A01 T00191064  RH  054%=      5-min Rain = 0
KAM2 082336Z 04005KT 02/M06 A3024 RMK A01 T00181064  RH  054%=      5-min Rain = 0
KAM2 082337Z 05005KT 02/M06 A3024 RMK A01 T00181064  RH  055%=      5-min Rain = 0
KAM2 082338Z 05006KT 02/M06 A3024 RMK A01 T00171064  RH  055%=      5-min Rain = 0
KAM2 082339Z 05005KT 02/M07 A3024 RMK A01 T00171065  RH  055%=      5-min Rain = 0
KAM2 082340Z 05006KT 02/M07 A3024 RMK A01 T00161065  RH  055%=      5-min Rain = 0
KAM2 082341Z 05005KT 02/M07 A3024 RMK A01 T00151065  RH  055%=      5-min Rain = 0
KAM2 082342Z 05006KT 01/M07 A3024 RMK A01 T00141065  RH  055%=      5-min Rain = 0
KAM2 082343Z 05005KT 01/M07 A3024 RMK A01 T00141066  RH  055%=      5-min Rain = 0
KAM2 082344Z 05005KT 01/M07 A3024 RMK A01 T00141066  RH  055%=      5-min Rain = 0
KAM2 082345Z 05005KT 01/M07 A3024 RMK A01 T00131066  RH  055%=      5-min Rain = 0
KAM2 082346Z 05005KT 01/M07 A3024 RMK A01 T00131067  RH  055%=      5-min Rain = 0
KAM2 082347Z 05005KT 01/M07 A3024 RMK A01 T00121067  RH  055%=      5-min Rain = 0
KAM2 082348Z 05005KT 01/M07 A3024 RMK A01 T00121067  RH  055%=      5-min Rain = 0
KAM2 082349Z 05005KT 01/M07 A3024 RMK A01 T00121067  RH  056%=      5-min Rain = 0
KAM2 082350Z 05006KT 01/M07 A3024 RMK A01 T00111068  RH  056%=      5-min Rain = 0
KAM2 082351Z 05006KT 01/M07 A3024 RMK A01 T00101068  RH  056%=      5-min Rain = 0
KAM2 082352Z 05006KT 01/M07 A3024 RMK A01 T00101068  RH  056%=      5-min Rain = 0
KAM2 082353Z 04005KT 01/M07 A3024 RMK A01 T00101068  RH  056%=      5-min Rain = 0
KAM2 082354Z 05005KT 01/M07 A3024 RMK A01 T00091068  RH  056%=      5-min Rain = 0
KAM2 082355Z 05005KT 01/M07 A3024 RMK A01 T00091068  RH  056%=      5-min Rain = 0
KAM2 082356Z 05006KT 01/M07 A3024 RMK A01 T00091069  RH  056%=      5-min Rain = 0
KAM2 082357Z 05005KT 01/M07 A3024 RMK A01 T00081069  RH  056%=      5-min Rain = 0
KAM2 082358Z 05005KT 01/M07 A3024 RMK A01 T00071070  RH  057%=      5-min Rain = 0
KAM2 082359Z 05005KT 01/M07 A3024 RMK A01 T00061071  RH  057%=      5-min Rain = 0
KAM2 090000Z 05005KT 01/M07 A3025 RMK A01 T00061071  RH  057%=      5-min Rain = 0
KAM2 090001Z 05005KT 00/M07 A3025 RMK A01 T00041071  RH  057%=      5-min Rain = 0
KAM2 090002Z 05005KT 00/M07 A3025 RMK A01 T00041071  RH  057%=      5-min Rain = 0
KAM2 090003Z 05005KT 00/M07 A3025 RMK A01 T00031072  RH  057%=      5-min Rain = 0
KAM2 090004Z 05005KT 00/M07 A3025 RMK A01 T00021072  RH  057%=      5-min Rain = 0
KAM2 090005Z 05005KT 00/M07 A3025 RMK A01 T00021072  RH  058%=      5-min Rain = 0
KAM2 090006Z 05005KT 00/M07 A3025 RMK A01 T00011072  RH  058%=      5-min Rain = 0
KAM2 090007Z 05005KT 00/M07 A3025 RMK A01 T00011072  RH  058%=      5-min Rain = 0
KAM2 090008Z 05005KT 00/07 A3025 RMK A01 T00000-73  RH  058%=      5-min Rain = 0
KAM2 090009Z 05004KT 00/07 A3025 RMK A01 T00-00-73  RH  058%=      5-min Rain = 0
KAM2 090010Z 05004KT M00/M07 A3025 RMK A01 T10011073  RH  058%=      5-min Rain = 0
KAM2 090011Z 05004KT M00/M07 A3025 RMK A01 T10021074  RH  058%=      5-min Rain = 0
KAM2 090012Z 05004KT M00/M07 A3025 RMK A01 T10031074  RH  059%=      5-min Rain = 0
KAM2 090013Z 05004KT M00/M07 A3025 RMK A01 T10031074  RH  059%=      5-min Rain = 0
KAM2 090014Z 05004KT M01/M08 A3025 RMK A01 T10051075  RH  059%=      5-min Rain = 0
KAM2 090015Z 05003KT M01/M08 A3025 RMK A01 T10061076  RH  059%=      5-min Rain = 0
KAM2 090016Z 05003KT M01/M07 A3025 RMK A01 T10081074  RH  061%=      5-min Rain = 0
KAM2 090017Z 06003KT M01/M07 A3025 RMK A01 T10091074  RH  061%=      5-min Rain = 0
KAM2 090018Z 05003KT M01/M07 A3025 RMK A01 T10101074  RH  062%=      5-min Rain = 0
KAM2 090019Z 06002KT M01/M07 A3025 RMK A01 T10101074  RH  062%=      5-min Rain = 0
KAM2 090020Z 05003KT M01/M07 A3025 RMK A01 T10111074  RH  062%=      5-min Rain = 0
KAM2 090021Z 05003KT M01/M08 A3025 RMK A01 T10111075  RH  062%=      5-min Rain = 0
KAM2 090022Z 05003KT M01/M08 A3025 RMK A01 T10121075  RH  062%=      5-min Rain = 0
KAM2 090023Z 06003KT M01/M08 A3025 RMK A01 T10121075  RH  062%=      5-min Rain = 0
KAM2 090024Z 06003KT M01/M08 A3025 RMK A01 T10121075  RH  062%=      5-min Rain = 0
KAM2 090025Z 06003KT M01/M08 A3025 RMK A01 T10121075  RH  062%=      5-min Rain = 0
KAM2 090026Z 07003KT M01/M08 A3025 RMK A01 T10121075  RH  062%=      5-min Rain = 0
KAM2 090027Z 07003KT M01/M08 A3025 RMK A01 T10121076  RH  062%=      5-min Rain = 0
KAM2 090028Z 08002KT M01/M08 A3025 RMK A01 T10111075  RH  061%=      5-min Rain = 0
KAM2 090029Z 08003KT M01/M08 A3025 RMK A01 T10091075  RH  061%=      5-min Rain = 0
KAM2 090030Z 09002KT M01/M08 A3025 RMK A01 T10071075  RH  060%=      5-min Rain = 0
KAM2 090031Z 09001KT M01/M08 A3025 RMK A01 T10061075  RH  059%=      5-min Rain = 0
KAM2 090032Z 09002KT M01/M08 A3025 RMK A01 T10061075  RH  059%=      5-min Rain = 0
KAM2 090033Z 08002KT M01/M08 A3025 RMK A01 T10061075  RH  060%=      5-min Rain = 0
KAM2 090034Z 08003KT M01/M08 A3025 RMK A01 T10061075  RH  060%=      5-min Rain = 0
KAM2 090035Z 08003KT M01/M08 A3025 RMK A01 T10071077  RH  059%=      5-min Rain = 0
KAM2 090036Z 08004KT M01/M08 A3025 RMK A01 T10081077  RH  059%=      5-min Rain = 0
KAM2 090037Z 08005KT M01/M08 A3025 RMK A01 T10091078  RH  059%=      5-min Rain = 0
KAM2 090038Z 08005KT M01/M08 A3025 RMK A01 T10101079  RH  060%=      5-min Rain = 0
KAM2 090039Z 08005KT M01/M08 A3025 RMK A01 T10111079  RH  060%=      5-min Rain = 0
KAM2 090040Z 08004KT M01/M08 A3025 RMK A01 T10121079  RH  060%=      5-min Rain = 0
KAM2 090041Z 08004KT M01/M08 A3025 RMK A01 T10121079  RH  060%=      5-min Rain = 0
KAM2 090042Z 08003KT M01/M08 A3025 RMK A01 T10121079  RH  060%=      5-min Rain = 0
KAM2 090043Z 08003KT M01/M08 A3025 RMK A01 T10121079  RH  061%=      5-min Rain = 0
KAM2 090044Z 08002KT M01/M08 A3026 RMK A01 T10121078  RH  061%=      5-min Rain = 0
KAM2 090045Z 07002KT M01/M08 A3026 RMK A01 T10131079  RH  061%=      5-min Rain = 0
KAM2 090046Z 07002KT M01/M08 A3026 RMK A01 T10131079  RH  061%=      5-min Rain = 0
KAM2 090047Z 08001KT M01/M08 A3026 RMK A01 T10131078  RH  061%=      5-min Rain = 0
KAM2 090048Z 08000KT M01/M08 A3026 RMK A01 T10131079  RH  061%=      5-min Rain = 0
KAM2 090049Z 09000KT M01/M08 A3026 RMK A01 T10131079  RH  061%=      5-min Rain = 0
KAM2 090050Z 05001KT M01/M08 A3026 RMK A01 T10131079  RH  061%=      5-min Rain = 0
KAM2 090051Z 03000KT M01/M08 A3026 RMK A01 T10131079  RH  061%=      5-min Rain = 0
KAM2 090052Z 00000KT M01/M08 A3026 RMK A01 T10121079  RH  061%=      5-min Rain = 0
KAM2 090053Z 12000KT M01/M08 A3026 RMK A01 T10121079  RH  060%=      5-min Rain = 0
KAM2 090054Z 23000KT M01/M08 A3026 RMK A01 T10111078  RH  060%=      5-min Rain = 0
KAM2 090055Z 21001KT M01/M08 A3026 RMK A01 T10101078  RH  060%=      5-min Rain = 0
KAM2 090056Z 16000KT M01/M08 A3026 RMK A01 T10101077  RH  060%=      5-min Rain = 0
KAM2 090057Z 13001KT M01/M08 A3026 RMK A01 T10101078  RH  060%=      5-min Rain = 0
KAM2 090058Z 15000KT M01/M08 A3026 RMK A01 T10101078  RH  060%=      5-min Rain = 0
KAM2 090059Z 17001KT M01/M08 A3026 RMK A01 T10101077  RH  060%=      5-min Rain = 0
KAM2 090100Z 19001KT M01/M08 A3026 RMK A01 T10111077  RH  061%=      5-min Rain = 0
KAM2 090101Z 20001KT M01/M08 A3026 RMK A01 T10141078  RH  062%=      5-min Rain = 0
KAM2 090102Z 18002KT M02/M08 A3026 RMK A01 T10161078  RH  062%=      5-min Rain = 0
KAM2 090103Z 15002KT M02/M08 A3026 RMK A01 T10161078  RH  063%=      5-min Rain = 0
KAM2 090104Z 16002KT M02/M08 A3026 RMK A01 T10171078  RH  063%=      5-min Rain = 0
KAM2 090105Z 16002KT M02/M08 A3026 RMK A01 T10171077  RH  063%=      5-min Rain = 0
KAM2 090106Z 15002KT M02/M08 A3026 RMK A01 T10161077  RH  063%=      5-min Rain = 0
KAM2 090107Z 15002KT M02/M08 A3027 RMK A01 T10161077  RH  063%=      5-min Rain = 0
KAM2 090108Z 15002KT M02/M08 A3027 RMK A01 T10161076  RH  063%=      5-min Rain = 0
KAM2 090109Z 18001KT M02/M08 A3027 RMK A01 T10151076  RH  063%=      5-min Rain = 0
KAM2 090110Z 18001KT M01/M08 A3027 RMK A01 T10141076  RH  063%=      5-min Rain = 0
KAM2 090111Z 19002KT M01/M08 A3027 RMK A01 T10141076  RH  062%=      5-min Rain = 0
KAM2 090112Z 20001KT M01/M08 A3027 RMK A01 T10131076  RH  062%=      5-min Rain = 0
KAM2 090113Z 17001KT M01/M08 A3027 RMK A01 T10131076  RH  062%=      5-min Rain = 0
KAM2 090114Z 19002KT M01/M08 A3027 RMK A01 T10131077  RH  062%=      5-min Rain = 0
KAM2 090115Z 17001KT M01/M08 A3027 RMK A01 T10131077  RH  062%=      5-min Rain = 0
KAM2 090116Z 16001KT M01/M08 A3027 RMK A01 T10141077  RH  062%=      5-min Rain = 0
KAM2 090117Z 14001KT M01/M08 A3027 RMK A01 T10141077  RH  062%=      5-min Rain = 0
KAM2 090118Z 14001KT M01/M08 A3027 RMK A01 T10141078  RH  062%=      5-min Rain = 0
KAM2 090119Z 13001KT M01/M08 A3027 RMK A01 T10141078  RH  062%=      5-min Rain = 0
KAM2 090120Z 12002KT M01/M08 A3026 RMK A01 T10141077  RH  062%=      5-min Rain = 0
KAM2 090121Z 13002KT M01/M08 A3026 RMK A01 T10141077  RH  062%=      5-min Rain = 0
KAM2 090122Z 12002KT M01/M08 A3027 RMK A01 T10141077  RH  062%=      5-min Rain = 0
KAM2 090123Z 13002KT M02/M08 A3027 RMK A01 T10151078  RH  062%=      5-min Rain = 0
KAM2 090124Z 14001KT M02/M08 A3027 RMK A01 T10161078  RH  062%=      5-min Rain = 0
KAM2 090125Z 10001KT M02/M08 A3027 RMK A01 T10161078  RH  063%=      5-min Rain = 0
KAM2 090126Z 09002KT M02/M08 A3027 RMK A01 T10171078  RH  063%=      5-min Rain = 0
KAM2 090127Z 10002KT M02/M08 A3026 RMK A01 T10181079  RH  063%=      5-min Rain = 0
KAM2 090128Z 10002KT M02/M08 A3026 RMK A01 T10191078  RH  064%=      5-min Rain = 0
KAM2 090129Z 11002KT M02/M08 A3026 RMK A01 T10191077  RH  065%=      5-min Rain = 0
KAM2 090130Z 09002KT M02/M08 A3026 RMK A01 T10201076  RH  065%=      5-min Rain = 0
KAM2 090131Z 09003KT M02/M08 A3026 RMK A01 T10211076  RH  066%=      5-min Rain = 0
KAM2 090132Z 09003KT M02/M08 A3026 RMK A01 T10211075  RH  066%=      5-min Rain = 0
KAM2 090133Z 09003KT M02/M08 A3026 RMK A01 T10221076  RH  067%=      5-min Rain = 0
KAM2 090134Z 10002KT M02/M08 A3026 RMK A01 T10221075  RH  067%=      5-min Rain = 0
KAM2 090135Z 10002KT M02/M08 A3027 RMK A01 T10231075  RH  067%=      5-min Rain = 0
KAM2 090136Z 08001KT M02/M08 A3027 RMK A01 T10231075  RH  068%=      5-min Rain = 0
KAM2 090137Z 09001KT M02/M08 A3027 RMK A01 T10241075  RH  068%=      5-min Rain = 0
KAM2 090138Z 15000KT M02/M08 A3027 RMK A01 T10241076  RH  068%=      5-min Rain = 0
KAM2 090139Z 12000KT M02/M08 A3027 RMK A01 T10241076  RH  067%=      5-min Rain = 0
KAM2 090140Z 09000KT M02/M08 A3027 RMK A01 T10241077  RH  067%=      5-min Rain = 0
KAM2 090141Z 00000KT M03/M08 A3027 RMK A01 T10251077  RH  067%=      5-min Rain = 0
KAM2 090142Z 25000KT M03/M08 A3027 RMK A01 T10251076  RH  068%=      5-min Rain = 0
KAM2 090143Z 28001KT M02/M08 A3027 RMK A01 T10241076  RH  068%=      5-min Rain = 0
KAM2 090144Z 25001KT M02/M08 A3027 RMK A01 T10241076  RH  067%=      5-min Rain = 0
KAM2 090145Z 24000KT M02/M08 A3027 RMK A01 T10241076  RH  068%=      5-min Rain = 0
KAM2 090146Z 00000KT M02/M08 A3027 RMK A01 T10241076  RH  068%=      5-min Rain = 0
KAM2 090147Z 24000KT M02/M08 A3027 RMK A01 T10241076  RH  068%=      5-min Rain = 0
KAM2 090148Z 23000KT M03/M08 A3027 RMK A01 T10251076  RH  068%=      5-min Rain = 0
KAM2 090149Z 22000KT M03/M08 A3027 RMK A01 T10261076  RH  068%=      5-min Rain = 0
KAM2 090150Z 21000KT M03/M08 A3027 RMK A01 T10261076  RH  068%=      5-min Rain = 0
KAM2 090151Z 15001KT M03/M08 A3027 RMK A01 T10261076  RH  069%=      5-min Rain = 0
KAM2 090152Z 14000KT M03/M08 A3027 RMK A01 T10261075  RH  069%=      5-min Rain = 0
KAM2 090153Z 14000KT M03/M08 A3027 RMK A01 T10261075  RH  069%=      5-min Rain = 0
KAM2 090154Z 00000KT M03/M07 A3027 RMK A01 T10251074  RH  069%=      5-min Rain = 0
KAM2 090155Z 00000KT M02/M07 A3027 RMK A01 T10241074  RH  068%=      5-min Rain = 0
KAM2 090156Z 23000KT M02/M07 A3027 RMK A01 T10241074  RH  068%=      5-min Rain = 0
KAM2 090157Z 15000KT M02/M08 A3027 RMK A01 T10241075  RH  068%=      5-min Rain = 0
KAM2 090158Z 17000KT M02/M08 A3027 RMK A01 T10241076  RH  068%=      5-min Rain = 0
KAM2 090159Z 15000KT M03/M08 A3027 RMK A01 T10251076  RH  068%=      5-min Rain = 0
KAM2 090200Z 16001KT M03/M08 A3027 RMK A01 T10251075  RH  068%=      5-min Rain = 0
KAM2 090201Z 19000KT M03/M08 A3028 RMK A01 T10251075  RH  069%=      5-min Rain = 0
KAM2 090202Z 18001KT M03/M08 A3027 RMK A01 T10251075  RH  068%=      5-min Rain = 0
KAM2 090203Z 16001KT M02/M08 A3027 RMK A01 T10231075  RH  068%=      5-min Rain = 0
KAM2 090204Z 19001KT M02/M08 A3027 RMK A01 T10231075  RH  067%=      5-min Rain = 0
KAM2 090205Z 19001KT M02/M08 A3027 RMK A01 T10231075  RH  067%=      5-min Rain = 0
KAM2 090206Z 19001KT M02/M08 A3027 RMK A01 T10231076  RH  067%=      5-min Rain = 0
KAM2 090207Z 19000KT M02/M08 A3028 RMK A01 T10241076  RH  067%=      5-min Rain = 0
KAM2 090208Z 21001KT M02/M08 A3028 RMK A01 T10241075  RH  068%=      5-min Rain = 0
KAM2 090209Z 17001KT M02/M08 A3028 RMK A01 T10231075  RH  067%=      5-min Rain = 0
KAM2 090210Z 16001KT M02/M08 A3027 RMK A01 T10231076  RH  067%=      5-min Rain = 0
KAM2 090211Z 17001KT M02/M08 A3028 RMK A01 T10231076  RH  067%=      5-min Rain = 0
KAM2 090212Z 16001KT M02/M08 A3028 RMK A01 T10231076  RH  067%=      5-min Rain = 0
KAM2 090213Z 17001KT M02/M08 A3028 RMK A01 T10231076  RH  067%=      5-min Rain = 0
KAM2 090214Z 16002KT M02/M08 A3028 RMK A01 T10231076  RH  067%=      5-min Rain = 0
KAM2 090215Z 16002KT M02/M08 A3028 RMK A01 T10241076  RH  067%=      5-min Rain = 0
KAM2 090216Z 17002KT M03/M08 A3028 RMK A01 T10261077  RH  068%=      5-min Rain = 0
KAM2 090217Z 17002KT M03/M08 A3028 RMK A01 T10271077  RH  068%=      5-min Rain = 0
KAM2 090218Z 16001KT M03/M08 A3028 RMK A01 T10281077  RH  069%=      5-min Rain = 0
KAM2 090219Z 16002KT M03/M08 A3028 RMK A01 T10301078  RH  069%=      5-min Rain = 0
KAM2 090220Z 16002KT M03/M08 A3028 RMK A01 T10301077  RH  070%=      5-min Rain = 0
KAM2 090221Z 16002KT M03/M08 A3028 RMK A01 T10301077  RH  070%=      5-min Rain = 0
KAM2 090222Z 15002KT M03/M08 A3028 RMK A01 T10301077  RH  070%=      5-min Rain = 0
KAM2 090223Z 14002KT M03/M08 A3028 RMK A01 T10311078  RH  070%=      5-min Rain = 0
KAM2 090224Z 16001KT M03/M08 A3028 RMK A01 T10321077  RH  071%=      5-min Rain = 0
KAM2 090225Z 18002KT M03/M08 A3028 RMK A01 T10331077  RH  071%=      5-min Rain = 0
KAM2 090226Z 18002KT M03/M08 A3028 RMK A01 T10341078  RH  072%=      5-min Rain = 0
KAM2 090227Z 18002KT M04/M08 A3028 RMK A01 T10351079  RH  072%=      5-min Rain = 0
KAM2 090228Z 18003KT M04/M08 A3028 RMK A01 T10361079  RH  072%=      5-min Rain = 0
KAM2 090229Z 18002KT M04/M08 A3028 RMK A01 T10371079  RH  073%=      5-min Rain = 0
KAM2 090230Z 17002KT M04/M08 A3028 RMK A01 T10371079  RH  072%=      5-min Rain = 0
KAM2 090231Z 17002KT M04/M08 A3028 RMK A01 T10361079  RH  072%=      5-min Rain = 0
KAM2 090232Z 17002KT M04/M08 A3028 RMK A01 T10361080  RH  072%=      5-min Rain = 0
KAM2 090233Z 17002KT M04/M08 A3028 RMK A01 T10361080  RH  071%=      5-min Rain = 0
KAM2 090234Z 17002KT M04/M08 A3028 RMK A01 T10361080  RH  072%=      5-min Rain = 0
KAM2 090235Z 17003KT M04/M08 A3028 RMK A01 T10361080  RH  072%=      5-min Rain = 0
KAM2 090236Z 17002KT M04/M08 A3028 RMK A01 T10371080  RH  072%=      5-min Rain = 0
KAM2 090237Z 17002KT M04/M08 A3028 RMK A01 T10371080  RH  072%=      5-min Rain = 0
KAM2 090238Z 18002KT M04/M08 A3028 RMK A01 T10371079  RH  072%=      5-min Rain = 0
KAM2 090239Z 17003KT M04/M08 A3028 RMK A01 T10371079  RH  073%=      5-min Rain = 0
KAM2 090240Z 18002KT M04/M08 A3028 RMK A01 T10361078  RH  073%=      5-min Rain = 0
KAM2 090241Z 19002KT M04/M08 A3028 RMK A01 T10351078  RH  072%=      5-min Rain = 0
KAM2 090242Z 19002KT M04/M08 A3028 RMK A01 T10351078  RH  072%=      5-min Rain = 0
KAM2 090243Z 19002KT M03/M08 A3028 RMK A01 T10341078  RH  072%=      5-min Rain = 0
KAM2 090244Z 18002KT M03/M08 A3028 RMK A01 T10341078  RH  072%=      5-min Rain = 0
KAM2 090245Z 17002KT M03/M08 A3028 RMK A01 T10341078  RH  072%=      5-min Rain = 0
KAM2 090246Z 17002KT M03/M08 A3028 RMK A01 T10331078  RH  071%=      5-min Rain = 0
KAM2 090247Z 17002KT M03/M08 A3028 RMK A01 T10331078  RH  071%=      5-min Rain = 0
KAM2 090248Z 17002KT M03/M08 A3028 RMK A01 T10331078  RH  071%=      5-min Rain = 0
KAM2 090249Z 18002KT M03/M08 A3028 RMK A01 T10331079  RH  071%=      5-min Rain = 0
KAM2 090250Z 19001KT M03/M08 A3028 RMK A01 T10341079  RH  071%=      5-min Rain = 0
KAM2 090251Z 18001KT M04/M08 A3028 RMK A01 T10371081  RH  071%=      5-min Rain = 0
KAM2 090252Z 18001KT M04/M08 A3028 RMK A01 T10391083  RH  072%=      5-min Rain = 0
KAM2 090253Z 19001KT M04/M08 A3028 RMK A01 T10411083  RH  073%=      5-min Rain = 0
KAM2 090254Z 19002KT M04/M08 A3028 RMK A01 T10431083  RH  073%=      5-min Rain = 0
KAM2 090255Z 18002KT M04/M08 A3028 RMK A01 T10441083  RH  074%=      5-min Rain = 0
KAM2 090256Z 18002KT M05/M08 A3028 RMK A01 T10451082  RH  075%=      5-min Rain = 0
KAM2 090257Z 19002KT M05/M08 A3028 RMK A01 T10451082  RH  076%=      5-min Rain = 0
KAM2 090258Z 19002KT M05/M08 A3028 RMK A01 T10461082  RH  076%=      5-min Rain = 0
KAM2 090259Z 19002KT M05/M08 A3028 RMK A01 T10471083  RH  076%=      5-min Rain = 0
KAM2 090300Z 18003KT M05/M08 A3028 RMK A01 T10471083  RH  076%=      5-min Rain = 0
KAM2 090301Z 18002KT M05/M08 A3028 RMK A01 T10471083  RH  076%=      5-min Rain = 0
KAM2 090302Z 18002KT M05/M08 A3028 RMK A01 T10481084  RH  076%=      5-min Rain = 0
KAM2 090303Z 18002KT M05/M08 A3028 RMK A01 T10481083  RH  076%=      5-min Rain = 0
KAM2 090304Z 18002KT M05/M08 A3028 RMK A01 T10471082  RH  077%=      5-min Rain = 0
KAM2 090305Z 18002KT M05/M08 A3028 RMK A01 T10471082  RH  076%=      5-min Rain = 0
KAM2 090306Z 18002KT M05/M08 A3028 RMK A01 T10471082  RH  076%=      5-min Rain = 0
KAM2 090307Z 18002KT M05/M08 A3028 RMK A01 T10471083  RH  076%=      5-min Rain = 0
KAM2 090308Z 18002KT M05/M08 A3028 RMK A01 T10471083  RH  076%=      5-min Rain = 0
KAM2 090309Z 18002KT M05/M08 A3028 RMK A01 T10481083  RH  077%=      5-min Rain = 0
KAM2 090310Z 18002KT M05/M08 A3028 RMK A01 T10471082  RH  077%=      5-min Rain = 0
KAM2 090311Z 18002KT M05/M08 A3028 RMK A01 T10481082  RH  077%=      5-min Rain = 0
KAM2 090312Z 18003KT M05/M08 A3028 RMK A01 T10481083  RH  077%=      5-min Rain = 0
KAM2 090313Z 18003KT M05/M08 A3028 RMK A01 T10491084  RH  077%=      5-min Rain = 0
KAM2 090314Z 18003KT M05/M08 A3028 RMK A01 T10501084  RH  077%=      5-min Rain = 0
KAM2 090315Z 17003KT M05/M09 A3028 RMK A01 T10501085  RH  077%=      5-min Rain = 0
KAM2 090316Z 18003KT M05/M09 A3028 RMK A01 T10511085  RH  077%=      5-min Rain = 0
KAM2 090317Z 18003KT M05/M09 A3028 RMK A01 T10521085  RH  078%=      5-min Rain = 0
KAM2 090318Z 18003KT M05/M09 A3028 RMK A01 T10531085  RH  078%=      5-min Rain = 0
KAM2 090319Z 19003KT M05/M09 A3028 RMK A01 T10541085  RH  079%=      5-min Rain = 0
KAM2 090320Z 18003KT M06/M09 A3028 RMK A01 T10551086  RH  079%=      5-min Rain = 0
KAM2 090321Z 18004KT M06/M09 A3028 RMK A01 T10551085  RH  079%=      5-min Rain = 0
KAM2 090322Z 18004KT M06/M09 A3028 RMK A01 T10551085  RH  079%=      5-min Rain = 0
KAM2 090323Z 17004KT M06/M09 A3028 RMK A01 T10551085  RH  079%=      5-min Rain = 0
KAM2 090324Z 17003KT M06/M09 A3028 RMK A01 T10551085  RH  079%=      5-min Rain = 0
KAM2 090325Z 17003KT M06/M09 A3028 RMK A01 T10551086  RH  079%=      5-min Rain = 0
KAM2 090326Z 18003KT M06/M09 A3028 RMK A01 T10551086  RH  079%=      5-min Rain = 0
KAM2 090327Z 18003KT M06/M09 A3028 RMK A01 T10561086  RH  080%=      5-min Rain = 0
KAM2 090328Z 18003KT M06/M09 A3028 RMK A01 T10561086  RH  080%=      5-min Rain = 0
KAM2 090329Z 18003KT M06/M09 A3028 RMK A01 T10561086  RH  080%=      5-min Rain = 0
KAM2 090330Z 18004KT M06/M09 A3028 RMK A01 T10561086  RH  079%=      5-min Rain = 0
KAM2 090331Z 18004KT M06/M09 A3028 RMK A01 T10571087  RH  079%=      5-min Rain = 0
KAM2 090332Z 18004KT M06/M09 A3028 RMK A01 T10571086  RH  080%=      5-min Rain = 0
KAM2 090333Z 18003KT M06/M09 A3028 RMK A01 T10571086  RH  080%=      5-min Rain = 0
KAM2 090334Z 18003KT M06/M09 A3028 RMK A01 T10571086  RH  080%=      5-min Rain = 0
KAM2 090335Z 18004KT M06/M09 A3028 RMK A01 T10571086  RH  080%=      5-min Rain = 0
KAM2 090336Z 18003KT M06/M09 A3028 RMK A01 T10581087  RH  080%=      5-min Rain = 0
KAM2 090337Z 18003KT M06/M09 A3028 RMK A01 T10581087  RH  080%=      5-min Rain = 0
KAM2 090338Z 18003KT M06/M09 A3028 RMK A01 T10581087  RH  080%=      5-min Rain = 0
KAM2 090339Z 19003KT M06/M09 A3028 RMK A01 T10581087  RH  080%=      5-min Rain = 0
KAM2 090340Z 18003KT M06/M09 A3028 RMK A01 T10581087  RH  080%=      5-min Rain = 0
KAM2 090341Z 18003KT M06/M09 A3028 RMK A01 T10581087  RH  080%=      5-min Rain = 0
KAM2 090342Z 18003KT M06/M09 A3028 RMK A01 T10591087  RH  080%=      5-min Rain = 0
KAM2 090343Z 18003KT M06/M09 A3028 RMK A01 T10591087  RH  081%=      5-min Rain = 0
KAM2 090344Z 18003KT M06/M09 A3028 RMK A01 T10591087  RH  081%=      5-min Rain = 0
KAM2 090345Z 18003KT M06/M09 A3028 RMK A01 T10591087  RH  081%=      5-min Rain = 0
KAM2 090346Z 19002KT M06/M09 A3028 RMK A01 T10591087  RH  081%=      5-min Rain = 0
KAM2 090347Z 19003KT M06/M09 A3028 RMK A01 T10591087  RH  081%=      5-min Rain = 0
KAM2 090348Z 18003KT M06/M09 A3028 RMK A01 T10591087  RH  081%=      5-min Rain = 0
KAM2 090349Z 18004KT M06/M09 A3028 RMK A01 T10591086  RH  081%=      5-min Rain = 0
KAM2 090350Z 18004KT M06/M09 A3028 RMK A01 T10591087  RH  081%=      5-min Rain = 0
KAM2 090351Z 19003KT M06/M09 A3028 RMK A01 T10591087  RH  081%=      5-min Rain = 0
KAM2 090352Z 20002KT M06/M09 A3028 RMK A01 T10601087  RH  081%=      5-min Rain = 0
KAM2 090353Z 20003KT M06/M09 A3028 RMK A01 T10601087  RH  081%=      5-min Rain = 0
KAM2 090354Z 20002KT M06/M09 A3028 RMK A01 T10601087  RH  081%=      5-min Rain = 0
KAM2 090355Z 20002KT M06/M09 A3029 RMK A01 T10611088  RH  081%=      5-min Rain = 0
KAM2 090356Z 19002KT M06/M09 A3029 RMK A01 T10611088  RH  081%=      5-min Rain = 0
KAM2 090357Z 18002KT M06/M09 A3029 RMK A01 T10621089  RH  081%=      5-min Rain = 0
KAM2 090358Z 18002KT M06/M09 A3029 RMK A01 T10621088  RH  082%=      5-min Rain = 0
KAM2 090359Z 18002KT M06/M09 A3029 RMK A01 T10621088  RH  082%=      5-min Rain = 0
KAM2 090400Z 17002KT M06/M09 A3029 RMK A01 T10621088  RH  082%=      5-min Rain = 0
KAM2 090401Z 16002KT M06/M09 A3029 RMK A01 T10611087  RH  082%=      5-min Rain = 0
KAM2 090402Z 17002KT M06/M09 A3029 RMK A01 T10601086  RH  082%=      5-min Rain = 0
KAM2 090403Z 17003KT M06/M09 A3029 RMK A01 T10601086  RH  082%=      5-min Rain = 0
KAM2 090404Z 18003KT M06/M09 A3029 RMK A01 T10601086  RH  082%=      5-min Rain = 0
KAM2 090405Z 18003KT M06/M09 A3029 RMK A01 T10601086  RH  081%=      5-min Rain = 0
KAM2 090406Z 18003KT M06/M09 A3029 RMK A01 T10601087  RH  081%=      5-min Rain = 0
KAM2 090407Z 18003KT M06/M09 A3029 RMK A01 T10601087  RH  081%=      5-min Rain = 0
KAM2 090408Z 18003KT M06/M09 A3029 RMK A01 T10611088  RH  081%=      5-min Rain = 0
KAM2 090409Z 17003KT M06/M09 A3029 RMK A01 T10621088  RH  082%=      5-min Rain = 0
KAM2 090410Z 17003KT M06/M09 A3029 RMK A01 T10621088  RH  082%=      5-min Rain = 0
KAM2 090411Z 18003KT M06/M09 A3029 RMK A01 T10631088  RH  082%=      5-min Rain = 0
KAM2 090412Z 17003KT M06/M09 A3029 RMK A01 T10631088  RH  082%=      5-min Rain = 0
KAM2 090413Z 17003KT M06/M09 A3029 RMK A01 T10631089  RH  082%=      5-min Rain = 0
KAM2 090414Z 17003KT M06/M09 A3029 RMK A01 T10641089  RH  083%=      5-min Rain = 0
KAM2 090415Z 18003KT M06/M09 A3029 RMK A01 T10641088  RH  083%=      5-min Rain = 0
KAM2 090416Z 18003KT M06/M09 A3029 RMK A01 T10631088  RH  083%=      5-min Rain = 0
KAM2 090417Z 18002KT M06/M09 A3029 RMK A01 T10641088  RH  083%=      5-min Rain = 0
KAM2 090418Z 18002KT M06/M09 A3029 RMK A01 T10641088  RH  083%=      5-min Rain = 0
KAM2 090419Z 18003KT M06/M09 A3029 RMK A01 T10641088  RH  083%=      5-min Rain = 0
KAM2 090420Z 18003KT M06/M09 A3029 RMK A01 T10641089  RH  083%=      5-min Rain = 0
KAM2 090421Z 18003KT M06/M09 A3029 RMK A01 T10641089  RH  083%=      5-min Rain = 0
KAM2 090422Z 18003KT M07/M09 A3029 RMK A01 T10651089  RH  083%=      5-min Rain = 0
KAM2 090423Z 18004KT M07/M09 A3029 RMK A01 T10661089  RH  083%=      5-min Rain = 0
KAM2 090424Z 18004KT M07/M09 A3029 RMK A01 T10661089  RH  083%=      5-min Rain = 0
KAM2 090425Z 18003KT M07/M09 A3029 RMK A01 T10661090  RH  083%=      5-min Rain = 0
KAM2 090426Z 18003KT M07/M09 A3029 RMK A01 T10661089  RH  084%=      5-min Rain = 0
KAM2 090427Z 18003KT M07/M09 A3029 RMK A01 T10661089  RH  084%=      5-min Rain = 0
KAM2 090428Z 18003KT M07/M09 A3029 RMK A01 T10671090  RH  084%=      5-min Rain = 0
KAM2 090429Z 18003KT M07/M09 A3029 RMK A01 T10671090  RH  084%=      5-min Rain = 0
KAM2 090430Z 19004KT M07/M09 A3029 RMK A01 T10671090  RH  084%=      5-min Rain = 0
KAM2 090431Z 19004KT M07/M09 A303 RMK A01 T10671090  RH  084%=      5-min Rain = 0
KAM2 090432Z 19004KT M07/M09 A303 RMK A01 T10671089  RH  084%=      5-min Rain = 0
KAM2 090433Z 19003KT M07/M09 A303 RMK A01 T10661088  RH  084%=      5-min Rain = 0
KAM2 090434Z 19003KT M07/M09 A303 RMK A01 T10661088  RH  084%=      5-min Rain = 0
KAM2 090435Z 19003KT M07/M09 A303 RMK A01 T10651088  RH  084%=      5-min Rain = 0
KAM2 090436Z 19002KT M07/M09 A303 RMK A01 T10661088  RH  084%=      5-min Rain = 0
KAM2 090437Z 19002KT M07/M09 A303 RMK A01 T10661089  RH  084%=      5-min Rain = 0
KAM2 090438Z 18002KT M07/M09 A303 RMK A01 T10661090  RH  083%=      5-min Rain = 0
KAM2 090439Z 18002KT M07/M09 A303 RMK A01 T10671090  RH  083%=      5-min Rain = 0
KAM2 090440Z 17002KT M07/M09 A303 RMK A01 T10671090  RH  084%=      5-min Rain = 0
KAM2 090441Z 17002KT M07/M09 A303 RMK A01 T10671089  RH  084%=      5-min Rain = 0
KAM2 090442Z 17002KT M07/M09 A303 RMK A01 T10671089  RH  084%=      5-min Rain = 0
KAM2 090443Z 17002KT M07/M09 A303 RMK A01 T10671089  RH  084%=      5-min Rain = 0
KAM2 090444Z 17003KT M07/M09 A303 RMK A01 T10661088  RH  084%=      5-min Rain = 0
KAM2 090445Z 17003KT M07/M09 A303 RMK A01 T10661088  RH  084%=      5-min Rain = 0
KAM2 090446Z 17003KT M07/M09 A303 RMK A01 T10651088  RH  084%=      5-min Rain = 0
KAM2 090447Z 17003KT M07/M09 A303 RMK A01 T10651088  RH  084%=      5-min Rain = 0
KAM2 090448Z 16003KT M07/M09 A303 RMK A01 T10651088  RH  084%=      5-min Rain = 0
KAM2 090449Z 17003KT M07/M09 A303 RMK A01 T10651088  RH  084%=      5-min Rain = 0
KAM2 090450Z 17003KT M07/M09 A303 RMK A01 T10651087  RH  084%=      5-min Rain = 0
KAM2 090451Z 17004KT M07/M09 A303 RMK A01 T10651087  RH  084%=      5-min Rain = 0
KAM2 090452Z 18004KT M07/M09 A303 RMK A01 T10661088  RH  084%=      5-min Rain = 0
KAM2 090453Z 17004KT M07/M09 A303 RMK A01 T10661089  RH  084%=      5-min Rain = 0
KAM2 090454Z 17003KT M07/M09 A303 RMK A01 T10681090  RH  084%=      5-min Rain = 0
KAM2 090455Z 17003KT M07/M09 A303 RMK A01 T10681090  RH  084%=      5-min Rain = 0
KAM2 090456Z 17003KT M07/M09 A303 RMK A01 T10691091  RH  084%=      5-min Rain = 0
KAM2 090457Z 17003KT M07/M09 A303 RMK A01 T10691091  RH  085%=      5-min Rain = 0
KAM2 090458Z 17003KT M07/M09 A303 RMK A01 T10701091  RH  085%=      5-min Rain = 0
KAM2 090459Z 17003KT M07/M09 A303 RMK A01 T10701091  RH  085%=      5-min Rain = 0
KAM2 090500Z 17003KT M07/M09 A303 RMK A01 T10711091  RH  085%=      5-min Rain = 0
KAM2 090501Z 17003KT M07/M09 A303 RMK A01 T10711092  RH  085%=      5-min Rain = 0
KAM2 090502Z 17004KT M07/M09 A303 RMK A01 T10711092  RH  085%=      5-min Rain = 0
KAM2 090503Z 17003KT M07/M09 A303 RMK A01 T10711092  RH  085%=      5-min Rain = 0
KAM2 090504Z 17003KT M07/M09 A303 RMK A01 T10711092  RH  085%=      5-min Rain = 0
KAM2 090505Z 17003KT M07/M09 A303 RMK A01 T10721092  RH  086%=      5-min Rain = 0
KAM2 090506Z 17003KT M07/M09 A303 RMK A01 T10721092  RH  086%=      5-min Rain = 0
KAM2 090507Z 17003KT M07/M09 A303 RMK A01 T10721092  RH  086%=      5-min Rain = 0
KAM2 090508Z 17003KT M07/M09 A303 RMK A01 T10721091  RH  086%=      5-min Rain = 0
KAM2 090509Z 17003KT M07/M09 A3031 RMK A01 T10721092  RH  086%=      5-min Rain = 0
KAM2 090510Z 17003KT M07/M09 A303 RMK A01 T10721092  RH  086%=      5-min Rain = 0
KAM2 090511Z 16003KT M07/M09 A303 RMK A01 T10721091  RH  086%=      5-min Rain = 0
KAM2 090512Z 16003KT M07/M09 A303 RMK A01 T10721092  RH  086%=      5-min Rain = 0
KAM2 090513Z 16002KT M07/M09 A303 RMK A01 T10721092  RH  086%=      5-min Rain = 0
KAM2 090514Z 15002KT M07/M09 A303 RMK A01 T10721093  RH  085%=      5-min Rain = 0
KAM2 090515Z 15002KT M07/M09 A303 RMK A01 T10721093  RH  085%=      5-min Rain = 0
KAM2 090516Z 15002KT M07/M09 A303 RMK A01 T10721092  RH  085%=      5-min Rain = 0
KAM2 090517Z 14002KT M07/M09 A303 RMK A01 T10721092  RH  085%=      5-min Rain = 0
KAM2 090518Z 14002KT M07/M09 A303 RMK A01 T10711092  RH  085%=      5-min Rain = 0
KAM2 090519Z 14002KT M07/M09 A303 RMK A01 T10711092  RH  085%=      5-min Rain = 0
KAM2 090520Z 14002KT M07/M09 A303 RMK A01 T10701092  RH  085%=      5-min Rain = 0
KAM2 090521Z 14002KT M07/M09 A303 RMK A01 T10701091  RH  085%=      5-min Rain = 0
KAM2 090522Z 14001KT M07/M09 A303 RMK A01 T10691091  RH  084%=      5-min Rain = 0
KAM2 090523Z 14001KT M07/M09 A303 RMK A01 T10691091  RH  084%=      5-min Rain = 0
KAM2 090524Z 15001KT M07/M09 A303 RMK A01 T10691092  RH  084%=      5-min Rain = 0
KAM2 090525Z 18001KT M07/M09 A303 RMK A01 T10701092  RH  084%=      5-min Rain = 0
KAM2 090526Z 18001KT M07/M09 A303 RMK A01 T10711094  RH  084%=      5-min Rain = 0
KAM2 090527Z 19001KT M07/M10 A303 RMK A01 T10721095  RH  084%=      5-min Rain = 0
KAM2 090528Z 20001KT M07/M10 A303 RMK A01 T10731095  RH  084%=      5-min Rain = 0
KAM2 090529Z 20001KT M07/M09 A303 RMK A01 T10731094  RH  085%=      5-min Rain = 0
KAM2 090530Z 20000KT M07/M09 A303 RMK A01 T10731092  RH  086%=      5-min Rain = 0
KAM2 090531Z 24000KT M07/M09 A303 RMK A01 T10731091  RH  087%=      5-min Rain = 0
KAM2 090532Z 25000KT M07/M09 A303 RMK A01 T10721090  RH  087%=      5-min Rain = 0
KAM2 090533Z 25001KT M07/M09 A303 RMK A01 T10701089  RH  087%=      5-min Rain = 0
KAM2 090534Z 25001KT M07/M09 A303 RMK A01 T10691088  RH  086%=      5-min Rain = 0
KAM2 090535Z 24001KT M07/M09 A303 RMK A01 T10681088  RH  086%=      5-min Rain = 0
KAM2 090536Z 23001KT M07/M09 A303 RMK A01 T10681088  RH  085%=      5-min Rain = 0
KAM2 090537Z 22002KT M07/M09 A303 RMK A01 T10671088  RH  085%=      5-min Rain = 0
KAM2 090538Z 22002KT M07/M09 A303 RMK A01 T10671088  RH  085%=      5-min Rain = 0
KAM2 090539Z 21002KT M07/M09 A303 RMK A01 T10671088  RH  085%=      5-min Rain = 0
KAM2 090540Z 21003KT M07/M09 A3031 RMK A01 T10681089  RH  085%=      5-min Rain = 0
KAM2 090541Z 21003KT M07/M09 A3031 RMK A01 T10681089  RH  085%=      5-min Rain = 0
KAM2 090542Z 20003KT M07/M09 A3031 RMK A01 T10691090  RH  085%=      5-min Rain = 0
KAM2 090543Z 18003KT M07/M09 A3031 RMK A01 T10701091  RH  085%=      5-min Rain = 0
KAM2 090544Z 19002KT M07/M09 A3031 RMK A01 T10701090  RH  085%=      5-min Rain = 0
KAM2 090545Z 19002KT M07/M09 A3031 RMK A01 T10691089  RH  086%=      5-min Rain = 0
KAM2 090546Z 19001KT M07/M09 A3031 RMK A01 T10671087  RH  086%=      5-min Rain = 0
KAM2 090547Z 19001KT M07/M09 A3031 RMK A01 T10671088  RH  085%=      5-min Rain = 0
KAM2 090548Z 19001KT M07/M09 A3031 RMK A01 T10671089  RH  085%=      5-min Rain = 0
KAM2 090549Z 19001KT M07/M09 A3031 RMK A01 T10671089  RH  084%=      5-min Rain = 0
KAM2 090550Z 19001KT M07/M09 A3031 RMK A01 T10671089  RH  084%=      5-min Rain = 0
KAM2 090551Z 19001KT M07/M09 A3031 RMK A01 T10681091  RH  084%=      5-min Rain = 0
KAM2 090552Z 22001KT M07/M09 A3031 RMK A01 T10711094  RH  084%=      5-min Rain = 0
KAM2 090553Z 26001KT M07/M10 A3031 RMK A01 T10731096  RH  084%=      5-min Rain = 0
KAM2 090554Z 23001KT M07/M10 A3031 RMK A01 T10741097  RH  084%=      5-min Rain = 0
KAM2 090555Z 20001KT M08/M10 A3031 RMK A01 T10751095  RH  085%=      5-min Rain = 0
KAM2 090556Z 24001KT M08/M09 A3031 RMK A01 T10751094  RH  086%=      5-min Rain = 0
KAM2 090557Z 18000KT M08/M09 A3031 RMK A01 T10751094  RH  086%=      5-min Rain = 0
KAM2 090558Z 19001KT M07/M09 A3031 RMK A01 T10741093  RH  086%=      5-min Rain = 0
KAM2 090559Z 19001KT M07/M09 A3031 RMK A01 T10741093  RH  086%=      5-min Rain = 0

Page generated in 0.0705 seconds.